<?xml version="1.0" encoding="UTF-8" standalone="no" ?>
<gpx xmlns="http://www.topografix.com/GPX/1/1" xmlns:xsi="http://www.w3.org/2001/XMLSchema-instance" xsi:schemaLocation="http://www.topografix.com/GPX/1/1 http://www.topografix.com/GPX/1/1/gpx.xsd" version="1.1" creator="VisuGPX - https://www.visugpx.com">
  <metadata>
    <name>Marsannay Marche du jeudi 05 avril 2012</name>
    <desc><![CDATA[ballade avec Gérard]]></desc>
  </metadata>
  <trk>
    <name><![CDATA[Marsannay Marche du jeudi 05 avril 2012_1]]></name>
    <trkseg>
      <trkpt lat="47.27995" lon="5.0019">
        <ele>265.105</ele>
        <time>2012-04-05T08:21:15Z</time>
      </trkpt>
      <trkpt lat="47.28" lon="5.00175">
        <ele>265.105</ele>
        <time>2012-04-05T08:21:26Z</time>
      </trkpt>
      <trkpt lat="47.2801" lon="5.00162">
        <ele>265.127</ele>
        <time>2012-04-05T08:21:37Z</time>
      </trkpt>
      <trkpt lat="47.28025" lon="5.00157">
        <ele>265.184</ele>
        <time>2012-04-05T08:21:48Z</time>
      </trkpt>
      <trkpt lat="47.2803" lon="5.0014">
        <ele>265.187</ele>
        <time>2012-04-05T08:21:59Z</time>
      </trkpt>
      <trkpt lat="47.28025" lon="5.0013">
        <ele>265.163</ele>
        <time>2012-04-05T08:22:10Z</time>
      </trkpt>
      <trkpt lat="47.28025" lon="5.00103">
        <ele>309.857</ele>
        <time>2012-04-05T08:22:21Z</time>
      </trkpt>
      <trkpt lat="47.28" lon="5.00095">
        <ele>287.922</ele>
        <time>2012-04-05T08:22:32Z</time>
      </trkpt>
      <trkpt lat="47.27998" lon="5.00078">
        <ele>289.715</ele>
        <time>2012-04-05T08:22:43Z</time>
      </trkpt>
      <trkpt lat="47.27998" lon="5.00058">
        <ele>289.662</ele>
        <time>2012-04-05T08:22:54Z</time>
      </trkpt>
      <trkpt lat="47.27998" lon="5.00042">
        <ele>285.186</ele>
        <time>2012-04-05T08:23:05Z</time>
      </trkpt>
      <trkpt lat="47.28002" lon="5.00032">
        <ele>282.235</ele>
        <time>2012-04-05T08:23:16Z</time>
      </trkpt>
      <trkpt lat="47.28003" lon="5.00012">
        <ele>281.934</ele>
        <time>2012-04-05T08:23:27Z</time>
      </trkpt>
      <trkpt lat="47.28012" lon="5">
        <ele>278.778</ele>
        <time>2012-04-05T08:23:38Z</time>
      </trkpt>
      <trkpt lat="47.28025" lon="5.00005">
        <ele>283.085</ele>
        <time>2012-04-05T08:23:49Z</time>
      </trkpt>
      <trkpt lat="47.28033" lon="5.00002">
        <ele>278.975</ele>
        <time>2012-04-05T08:24:00Z</time>
      </trkpt>
      <trkpt lat="47.28038" lon="4.99985">
        <ele>277.922</ele>
        <time>2012-04-05T08:24:11Z</time>
      </trkpt>
      <trkpt lat="47.28042" lon="4.99967">
        <ele>275.965</ele>
        <time>2012-04-05T08:24:22Z</time>
      </trkpt>
      <trkpt lat="47.2805" lon="4.99948">
        <ele>276.356</ele>
        <time>2012-04-05T08:24:33Z</time>
      </trkpt>
      <trkpt lat="47.28058" lon="4.99933">
        <ele>276.076</ele>
        <time>2012-04-05T08:24:44Z</time>
      </trkpt>
      <trkpt lat="47.2807" lon="4.99935">
        <ele>277.748</ele>
        <time>2012-04-05T08:24:55Z</time>
      </trkpt>
      <trkpt lat="47.28078" lon="4.99947">
        <ele>278.427</ele>
        <time>2012-04-05T08:25:06Z</time>
      </trkpt>
      <trkpt lat="47.28088" lon="4.9995">
        <ele>280.821</ele>
        <time>2012-04-05T08:25:17Z</time>
      </trkpt>
      <trkpt lat="47.28098" lon="4.99958">
        <ele>280.786</ele>
        <time>2012-04-05T08:25:28Z</time>
      </trkpt>
      <trkpt lat="47.2811" lon="4.9996">
        <ele>279.82</ele>
        <time>2012-04-05T08:25:39Z</time>
      </trkpt>
      <trkpt lat="47.28125" lon="4.9995">
        <ele>277.382</ele>
        <time>2012-04-05T08:25:50Z</time>
      </trkpt>
      <trkpt lat="47.28133" lon="4.99932">
        <ele>277.615</ele>
        <time>2012-04-05T08:26:01Z</time>
      </trkpt>
      <trkpt lat="47.28138" lon="4.99913">
        <ele>278.298</ele>
        <time>2012-04-05T08:26:12Z</time>
      </trkpt>
      <trkpt lat="47.28147" lon="4.99895">
        <ele>278.582</ele>
        <time>2012-04-05T08:26:23Z</time>
      </trkpt>
      <trkpt lat="47.28152" lon="4.99885">
        <ele>278.474</ele>
        <time>2012-04-05T08:26:34Z</time>
      </trkpt>
      <trkpt lat="47.28163" lon="4.99885">
        <ele>278.298</ele>
        <time>2012-04-05T08:26:45Z</time>
      </trkpt>
      <trkpt lat="47.28175" lon="4.99898">
        <ele>277.648</ele>
        <time>2012-04-05T08:26:56Z</time>
      </trkpt>
      <trkpt lat="47.28187" lon="4.99908">
        <ele>277.574</ele>
        <time>2012-04-05T08:27:07Z</time>
      </trkpt>
      <trkpt lat="47.28198" lon="4.99918">
        <ele>277.111</ele>
        <time>2012-04-05T08:27:18Z</time>
      </trkpt>
      <trkpt lat="47.28208" lon="4.99928">
        <ele>276.652</ele>
        <time>2012-04-05T08:27:29Z</time>
      </trkpt>
      <trkpt lat="47.28218" lon="4.99942">
        <ele>277.722</ele>
        <time>2012-04-05T08:27:40Z</time>
      </trkpt>
      <trkpt lat="47.2823" lon="4.99952">
        <ele>277.767</ele>
        <time>2012-04-05T08:27:51Z</time>
      </trkpt>
      <trkpt lat="47.28238" lon="4.99963">
        <ele>278.185</ele>
        <time>2012-04-05T08:28:02Z</time>
      </trkpt>
      <trkpt lat="47.2825" lon="4.99965">
        <ele>276.709</ele>
        <time>2012-04-05T08:28:13Z</time>
      </trkpt>
      <trkpt lat="47.28258" lon="4.9995">
        <ele>275.999</ele>
        <time>2012-04-05T08:28:24Z</time>
      </trkpt>
      <trkpt lat="47.28265" lon="4.99933">
        <ele>275.822</ele>
        <time>2012-04-05T08:28:35Z</time>
      </trkpt>
      <trkpt lat="47.28268" lon="4.99928">
        <ele>275.289</ele>
        <time>2012-04-05T08:28:46Z</time>
      </trkpt>
      <trkpt lat="47.28275" lon="4.99915">
        <ele>275.477</ele>
        <time>2012-04-05T08:28:57Z</time>
      </trkpt>
      <trkpt lat="47.28282" lon="4.99897">
        <ele>275.28</ele>
        <time>2012-04-05T08:29:08Z</time>
      </trkpt>
      <trkpt lat="47.2829" lon="4.9988">
        <ele>275.888</ele>
        <time>2012-04-05T08:29:19Z</time>
      </trkpt>
      <trkpt lat="47.28298" lon="4.99865">
        <ele>275.56</ele>
        <time>2012-04-05T08:29:30Z</time>
      </trkpt>
      <trkpt lat="47.28305" lon="4.99848">
        <ele>275.7</ele>
        <time>2012-04-05T08:29:41Z</time>
      </trkpt>
      <trkpt lat="47.28308" lon="4.99832">
        <ele>276.883</ele>
        <time>2012-04-05T08:29:52Z</time>
      </trkpt>
      <trkpt lat="47.28303" lon="4.99815">
        <ele>278.383</ele>
        <time>2012-04-05T08:30:03Z</time>
      </trkpt>
      <trkpt lat="47.28295" lon="4.99798">
        <ele>277.536</ele>
        <time>2012-04-05T08:30:14Z</time>
      </trkpt>
      <trkpt lat="47.28288" lon="4.99787">
        <ele>277.725</ele>
        <time>2012-04-05T08:30:25Z</time>
      </trkpt>
      <trkpt lat="47.28302" lon="4.99778">
        <ele>277.842</ele>
        <time>2012-04-05T08:30:36Z</time>
      </trkpt>
      <trkpt lat="47.28315" lon="4.99775">
        <ele>277.327</ele>
        <time>2012-04-05T08:30:47Z</time>
      </trkpt>
      <trkpt lat="47.2833" lon="4.99773">
        <ele>276.095</ele>
        <time>2012-04-05T08:30:58Z</time>
      </trkpt>
      <trkpt lat="47.28343" lon="4.99783">
        <ele>275.209</ele>
        <time>2012-04-05T08:31:09Z</time>
      </trkpt>
      <trkpt lat="47.28357" lon="4.99795">
        <ele>274.715</ele>
        <time>2012-04-05T08:31:20Z</time>
      </trkpt>
      <trkpt lat="47.28368" lon="4.99805">
        <ele>274.996</ele>
        <time>2012-04-05T08:31:31Z</time>
      </trkpt>
      <trkpt lat="47.28383" lon="4.99817">
        <ele>275.076</ele>
        <time>2012-04-05T08:31:42Z</time>
      </trkpt>
      <trkpt lat="47.28397" lon="4.99828">
        <ele>274.099</ele>
        <time>2012-04-05T08:31:53Z</time>
      </trkpt>
      <trkpt lat="47.28407" lon="4.99837">
        <ele>274.067</ele>
        <time>2012-04-05T08:32:04Z</time>
      </trkpt>
      <trkpt lat="47.28415" lon="4.99823">
        <ele>274.7</ele>
        <time>2012-04-05T08:32:15Z</time>
      </trkpt>
      <trkpt lat="47.28423" lon="4.99805">
        <ele>275.718</ele>
        <time>2012-04-05T08:32:26Z</time>
      </trkpt>
      <trkpt lat="47.2843" lon="4.99787">
        <ele>276.753</ele>
        <time>2012-04-05T08:32:37Z</time>
      </trkpt>
      <trkpt lat="47.28437" lon="4.9977">
        <ele>278.183</ele>
        <time>2012-04-05T08:32:48Z</time>
      </trkpt>
      <trkpt lat="47.28443" lon="4.99752">
        <ele>278.706</ele>
        <time>2012-04-05T08:32:59Z</time>
      </trkpt>
      <trkpt lat="47.2845" lon="4.99735">
        <ele>278.718</ele>
        <time>2012-04-05T08:33:10Z</time>
      </trkpt>
      <trkpt lat="47.28457" lon="4.99717">
        <ele>280.265</ele>
        <time>2012-04-05T08:33:21Z</time>
      </trkpt>
      <trkpt lat="47.28463" lon="4.997">
        <ele>280.68</ele>
        <time>2012-04-05T08:33:32Z</time>
      </trkpt>
      <trkpt lat="47.2847" lon="4.99683">
        <ele>281.809</ele>
        <time>2012-04-05T08:33:43Z</time>
      </trkpt>
      <trkpt lat="47.28475" lon="4.99667">
        <ele>284.477</ele>
        <time>2012-04-05T08:33:54Z</time>
      </trkpt>
      <trkpt lat="47.2848" lon="4.99648">
        <ele>286.261</ele>
        <time>2012-04-05T08:34:05Z</time>
      </trkpt>
      <trkpt lat="47.28488" lon="4.9963">
        <ele>286.906</ele>
        <time>2012-04-05T08:34:16Z</time>
      </trkpt>
      <trkpt lat="47.28495" lon="4.99612">
        <ele>288.84</ele>
        <time>2012-04-05T08:34:27Z</time>
      </trkpt>
      <trkpt lat="47.28502" lon="4.99603">
        <ele>290.768</ele>
        <time>2012-04-05T08:34:38Z</time>
      </trkpt>
      <trkpt lat="47.28502" lon="4.99603">
        <ele>290.665</ele>
        <time>2012-04-05T08:34:49Z</time>
      </trkpt>
      <trkpt lat="47.28508" lon="4.99607">
        <ele>290.729</ele>
        <time>2012-04-05T08:35:00Z</time>
      </trkpt>
      <trkpt lat="47.28517" lon="4.99615">
        <ele>290.725</ele>
        <time>2012-04-05T08:35:11Z</time>
      </trkpt>
      <trkpt lat="47.28528" lon="4.99625">
        <ele>290.833</ele>
        <time>2012-04-05T08:35:22Z</time>
      </trkpt>
      <trkpt lat="47.28537" lon="4.99632">
        <ele>290.519</ele>
        <time>2012-04-05T08:35:33Z</time>
      </trkpt>
      <trkpt lat="47.28545" lon="4.99635">
        <ele>290.534</ele>
        <time>2012-04-05T08:35:44Z</time>
      </trkpt>
      <trkpt lat="47.28545" lon="4.99652">
        <ele>291.26</ele>
        <time>2012-04-05T08:35:55Z</time>
      </trkpt>
      <trkpt lat="47.2855" lon="4.99668">
        <ele>291.307</ele>
        <time>2012-04-05T08:36:06Z</time>
      </trkpt>
      <trkpt lat="47.28562" lon="4.9968">
        <ele>289.958</ele>
        <time>2012-04-05T08:36:17Z</time>
      </trkpt>
      <trkpt lat="47.28572" lon="4.99688">
        <ele>289.872</ele>
        <time>2012-04-05T08:36:28Z</time>
      </trkpt>
      <trkpt lat="47.2858" lon="4.99693">
        <ele>288.321</ele>
        <time>2012-04-05T08:36:39Z</time>
      </trkpt>
      <trkpt lat="47.28592" lon="4.99702">
        <ele>288.036</ele>
        <time>2012-04-05T08:36:50Z</time>
      </trkpt>
      <trkpt lat="47.28608" lon="4.99708">
        <ele>286.902</ele>
        <time>2012-04-05T08:37:01Z</time>
      </trkpt>
      <trkpt lat="47.28622" lon="4.99717">
        <ele>286.032</ele>
        <time>2012-04-05T08:37:12Z</time>
      </trkpt>
      <trkpt lat="47.28635" lon="4.99723">
        <ele>285.988</ele>
        <time>2012-04-05T08:37:23Z</time>
      </trkpt>
      <trkpt lat="47.28648" lon="4.9973">
        <ele>285.269</ele>
        <time>2012-04-05T08:37:34Z</time>
      </trkpt>
      <trkpt lat="47.28662" lon="4.99735">
        <ele>285.193</ele>
        <time>2012-04-05T08:37:45Z</time>
      </trkpt>
      <trkpt lat="47.28675" lon="4.99742">
        <ele>284.629</ele>
        <time>2012-04-05T08:37:56Z</time>
      </trkpt>
      <trkpt lat="47.28687" lon="4.99753">
        <ele>285.087</ele>
        <time>2012-04-05T08:38:07Z</time>
      </trkpt>
      <trkpt lat="47.287" lon="4.99765">
        <ele>284.244</ele>
        <time>2012-04-05T08:38:18Z</time>
      </trkpt>
      <trkpt lat="47.2871" lon="4.99777">
        <ele>283.445</ele>
        <time>2012-04-05T08:38:29Z</time>
      </trkpt>
      <trkpt lat="47.28723" lon="4.99787">
        <ele>282.431</ele>
        <time>2012-04-05T08:38:40Z</time>
      </trkpt>
      <trkpt lat="47.28737" lon="4.99797">
        <ele>282.825</ele>
        <time>2012-04-05T08:38:51Z</time>
      </trkpt>
      <trkpt lat="47.2875" lon="4.99805">
        <ele>281.808</ele>
        <time>2012-04-05T08:39:02Z</time>
      </trkpt>
      <trkpt lat="47.28765" lon="4.99812">
        <ele>281.45</ele>
        <time>2012-04-05T08:39:13Z</time>
      </trkpt>
      <trkpt lat="47.28778" lon="4.99818">
        <ele>281.464</ele>
        <time>2012-04-05T08:39:24Z</time>
      </trkpt>
      <trkpt lat="47.28793" lon="4.99823">
        <ele>282.24</ele>
        <time>2012-04-05T08:39:35Z</time>
      </trkpt>
      <trkpt lat="47.28807" lon="4.99832">
        <ele>282.691</ele>
        <time>2012-04-05T08:39:46Z</time>
      </trkpt>
      <trkpt lat="47.28822" lon="4.99838">
        <ele>283.03</ele>
        <time>2012-04-05T08:39:57Z</time>
      </trkpt>
      <trkpt lat="47.28837" lon="4.99847">
        <ele>282.045</ele>
        <time>2012-04-05T08:40:08Z</time>
      </trkpt>
      <trkpt lat="47.28848" lon="4.99852">
        <ele>282.185</ele>
        <time>2012-04-05T08:40:19Z</time>
      </trkpt>
      <trkpt lat="47.28855" lon="4.99843">
        <ele>283.013</ele>
        <time>2012-04-05T08:40:30Z</time>
      </trkpt>
      <trkpt lat="47.28855" lon="4.99838">
        <ele>282.262</ele>
        <time>2012-04-05T08:40:41Z</time>
      </trkpt>
      <trkpt lat="47.28855" lon="4.9983">
        <ele>282.754</ele>
        <time>2012-04-05T08:40:52Z</time>
      </trkpt>
      <trkpt lat="47.28857" lon="4.99815">
        <ele>283.294</ele>
        <time>2012-04-05T08:41:03Z</time>
      </trkpt>
      <trkpt lat="47.28858" lon="4.99798">
        <ele>283.623</ele>
        <time>2012-04-05T08:41:14Z</time>
      </trkpt>
      <trkpt lat="47.28858" lon="4.99787">
        <ele>284.058</ele>
        <time>2012-04-05T08:41:25Z</time>
      </trkpt>
      <trkpt lat="47.28858" lon="4.99785">
        <ele>283.959</ele>
        <time>2012-04-05T08:41:36Z</time>
      </trkpt>
      <trkpt lat="47.28858" lon="4.99775">
        <ele>283.909</ele>
        <time>2012-04-05T08:41:47Z</time>
      </trkpt>
      <trkpt lat="47.28862" lon="4.99757">
        <ele>284.89</ele>
        <time>2012-04-05T08:41:58Z</time>
      </trkpt>
      <trkpt lat="47.28863" lon="4.99738">
        <ele>286.952</ele>
        <time>2012-04-05T08:42:09Z</time>
      </trkpt>
      <trkpt lat="47.28867" lon="4.99722">
        <ele>289.487</ele>
        <time>2012-04-05T08:42:20Z</time>
      </trkpt>
      <trkpt lat="47.28868" lon="4.99708">
        <ele>290.986</ele>
        <time>2012-04-05T08:42:31Z</time>
      </trkpt>
      <trkpt lat="47.28868" lon="4.99693">
        <ele>293.1</ele>
        <time>2012-04-05T08:42:42Z</time>
      </trkpt>
      <trkpt lat="47.28872" lon="4.99678">
        <ele>292.58</ele>
        <time>2012-04-05T08:42:53Z</time>
      </trkpt>
      <trkpt lat="47.28872" lon="4.99663">
        <ele>294.261</ele>
        <time>2012-04-05T08:43:04Z</time>
      </trkpt>
      <trkpt lat="47.28875" lon="4.9965">
        <ele>295.42</ele>
        <time>2012-04-05T08:43:15Z</time>
      </trkpt>
      <trkpt lat="47.28875" lon="4.99637">
        <ele>295.695</ele>
        <time>2012-04-05T08:43:26Z</time>
      </trkpt>
      <trkpt lat="47.28877" lon="4.99628">
        <ele>297.073</ele>
        <time>2012-04-05T08:43:37Z</time>
      </trkpt>
      <trkpt lat="47.2887" lon="4.99627">
        <ele>296.848</ele>
        <time>2012-04-05T08:43:48Z</time>
      </trkpt>
      <trkpt lat="47.28865" lon="4.99615">
        <ele>298.92</ele>
        <time>2012-04-05T08:43:59Z</time>
      </trkpt>
      <trkpt lat="47.28858" lon="4.99612">
        <ele>299.871</ele>
        <time>2012-04-05T08:44:10Z</time>
      </trkpt>
      <trkpt lat="47.28852" lon="4.99608">
        <ele>300.41</ele>
        <time>2012-04-05T08:44:21Z</time>
      </trkpt>
      <trkpt lat="47.28848" lon="4.99605">
        <ele>300.979</ele>
        <time>2012-04-05T08:44:32Z</time>
      </trkpt>
      <trkpt lat="47.28848" lon="4.99597">
        <ele>302.655</ele>
        <time>2012-04-05T08:44:43Z</time>
      </trkpt>
      <trkpt lat="47.28845" lon="4.99585">
        <ele>304.7</ele>
        <time>2012-04-05T08:44:54Z</time>
      </trkpt>
      <trkpt lat="47.2884" lon="4.99577">
        <ele>305.946</ele>
        <time>2012-04-05T08:45:05Z</time>
      </trkpt>
      <trkpt lat="47.28833" lon="4.99567">
        <ele>308.39</ele>
        <time>2012-04-05T08:45:16Z</time>
      </trkpt>
      <trkpt lat="47.28832" lon="4.99557">
        <ele>307.91</ele>
        <time>2012-04-05T08:45:27Z</time>
      </trkpt>
      <trkpt lat="47.2883" lon="4.99538">
        <ele>309.074</ele>
        <time>2012-04-05T08:45:38Z</time>
      </trkpt>
      <trkpt lat="47.28832" lon="4.99523">
        <ele>310.651</ele>
        <time>2012-04-05T08:45:49Z</time>
      </trkpt>
      <trkpt lat="47.28835" lon="4.99512">
        <ele>312.178</ele>
        <time>2012-04-05T08:46:00Z</time>
      </trkpt>
      <trkpt lat="47.28842" lon="4.99502">
        <ele>313.025</ele>
        <time>2012-04-05T08:46:11Z</time>
      </trkpt>
      <trkpt lat="47.28848" lon="4.99492">
        <ele>315.996</ele>
        <time>2012-04-05T08:46:22Z</time>
      </trkpt>
      <trkpt lat="47.28857" lon="4.9949">
        <ele>316.915</ele>
        <time>2012-04-05T08:46:33Z</time>
      </trkpt>
      <trkpt lat="47.28865" lon="4.99495">
        <ele>318.563</ele>
        <time>2012-04-05T08:46:44Z</time>
      </trkpt>
      <trkpt lat="47.28875" lon="4.99498">
        <ele>319.664</ele>
        <time>2012-04-05T08:46:55Z</time>
      </trkpt>
      <trkpt lat="47.28883" lon="4.995">
        <ele>318</ele>
        <time>2012-04-05T08:47:06Z</time>
      </trkpt>
      <trkpt lat="47.28895" lon="4.99502">
        <ele>324.23</ele>
        <time>2012-04-05T08:47:17Z</time>
      </trkpt>
      <trkpt lat="47.28907" lon="4.99507">
        <ele>323.021</ele>
        <time>2012-04-05T08:47:28Z</time>
      </trkpt>
      <trkpt lat="47.28917" lon="4.9951">
        <ele>322.717</ele>
        <time>2012-04-05T08:47:39Z</time>
      </trkpt>
      <trkpt lat="47.28925" lon="4.9951">
        <ele>322.737</ele>
        <time>2012-04-05T08:47:50Z</time>
      </trkpt>
      <trkpt lat="47.28937" lon="4.99508">
        <ele>322.835</ele>
        <time>2012-04-05T08:48:01Z</time>
      </trkpt>
      <trkpt lat="47.28945" lon="4.99508">
        <ele>323.872</ele>
        <time>2012-04-05T08:48:12Z</time>
      </trkpt>
      <trkpt lat="47.28958" lon="4.99507">
        <ele>323.801</ele>
        <time>2012-04-05T08:48:23Z</time>
      </trkpt>
      <trkpt lat="47.2897" lon="4.99507">
        <ele>325.093</ele>
        <time>2012-04-05T08:48:34Z</time>
      </trkpt>
      <trkpt lat="47.28977" lon="4.99502">
        <ele>325.036</ele>
        <time>2012-04-05T08:48:45Z</time>
      </trkpt>
      <trkpt lat="47.28975" lon="4.99493">
        <ele>325.232</ele>
        <time>2012-04-05T08:48:56Z</time>
      </trkpt>
      <trkpt lat="47.28977" lon="4.99475">
        <ele>326.164</ele>
        <time>2012-04-05T08:49:07Z</time>
      </trkpt>
      <trkpt lat="47.28983" lon="4.99462">
        <ele>327.29</ele>
        <time>2012-04-05T08:49:18Z</time>
      </trkpt>
      <trkpt lat="47.28988" lon="4.99465">
        <ele>328.723</ele>
        <time>2012-04-05T08:49:29Z</time>
      </trkpt>
      <trkpt lat="47.2899" lon="4.9947">
        <ele>328.344</ele>
        <time>2012-04-05T08:49:40Z</time>
      </trkpt>
      <trkpt lat="47.28992" lon="4.99457">
        <ele>327.683</ele>
        <time>2012-04-05T08:49:51Z</time>
      </trkpt>
      <trkpt lat="47.29002" lon="4.99448">
        <ele>328.297</ele>
        <time>2012-04-05T08:50:02Z</time>
      </trkpt>
      <trkpt lat="47.29017" lon="4.99442">
        <ele>328.765</ele>
        <time>2012-04-05T08:50:13Z</time>
      </trkpt>
      <trkpt lat="47.29025" lon="4.99427">
        <ele>328.907</ele>
        <time>2012-04-05T08:50:24Z</time>
      </trkpt>
      <trkpt lat="47.29035" lon="4.99417">
        <ele>329.889</ele>
        <time>2012-04-05T08:50:35Z</time>
      </trkpt>
      <trkpt lat="47.29045" lon="4.9941">
        <ele>330.18</ele>
        <time>2012-04-05T08:50:46Z</time>
      </trkpt>
      <trkpt lat="47.29053" lon="4.994">
        <ele>331.296</ele>
        <time>2012-04-05T08:50:57Z</time>
      </trkpt>
      <trkpt lat="47.29063" lon="4.99387">
        <ele>332.331</ele>
        <time>2012-04-05T08:51:08Z</time>
      </trkpt>
      <trkpt lat="47.29067" lon="4.99368">
        <ele>334.006</ele>
        <time>2012-04-05T08:51:19Z</time>
      </trkpt>
      <trkpt lat="47.29065" lon="4.99347">
        <ele>334.891</ele>
        <time>2012-04-05T08:51:30Z</time>
      </trkpt>
      <trkpt lat="47.29062" lon="4.9933">
        <ele>335.873</ele>
        <time>2012-04-05T08:51:41Z</time>
      </trkpt>
      <trkpt lat="47.2906" lon="4.9931">
        <ele>338.433</ele>
        <time>2012-04-05T08:51:52Z</time>
      </trkpt>
      <trkpt lat="47.29058" lon="4.99293">
        <ele>337.906</ele>
        <time>2012-04-05T08:52:03Z</time>
      </trkpt>
      <trkpt lat="47.29057" lon="4.99275">
        <ele>339.412</ele>
        <time>2012-04-05T08:52:14Z</time>
      </trkpt>
      <trkpt lat="47.29055" lon="4.99255">
        <ele>341.32</ele>
        <time>2012-04-05T08:52:25Z</time>
      </trkpt>
      <trkpt lat="47.29052" lon="4.99238">
        <ele>342.866</ele>
        <time>2012-04-05T08:52:36Z</time>
      </trkpt>
      <trkpt lat="47.2905" lon="4.99222">
        <ele>343.679</ele>
        <time>2012-04-05T08:52:47Z</time>
      </trkpt>
      <trkpt lat="47.2905" lon="4.99205">
        <ele>346.175</ele>
        <time>2012-04-05T08:52:58Z</time>
      </trkpt>
      <trkpt lat="47.29048" lon="4.99187">
        <ele>347.215</ele>
        <time>2012-04-05T08:53:09Z</time>
      </trkpt>
      <trkpt lat="47.29048" lon="4.99168">
        <ele>348.799</ele>
        <time>2012-04-05T08:53:20Z</time>
      </trkpt>
      <trkpt lat="47.29047" lon="4.9915">
        <ele>350.116</ele>
        <time>2012-04-05T08:53:31Z</time>
      </trkpt>
      <trkpt lat="47.29047" lon="4.99147">
        <ele>350.65</ele>
        <time>2012-04-05T08:53:42Z</time>
      </trkpt>
      <trkpt lat="47.29045" lon="4.99137">
        <ele>351.082</ele>
        <time>2012-04-05T08:53:53Z</time>
      </trkpt>
      <trkpt lat="47.29043" lon="4.9913">
        <ele>350.187</ele>
        <time>2012-04-05T08:54:04Z</time>
      </trkpt>
      <trkpt lat="47.29042" lon="4.99113">
        <ele>350.323</ele>
        <time>2012-04-05T08:54:15Z</time>
      </trkpt>
      <trkpt lat="47.29038" lon="4.99098">
        <ele>351.318</ele>
        <time>2012-04-05T08:54:26Z</time>
      </trkpt>
      <trkpt lat="47.29035" lon="4.99083">
        <ele>351.743</ele>
        <time>2012-04-05T08:54:37Z</time>
      </trkpt>
      <trkpt lat="47.2903" lon="4.99065">
        <ele>352.375</ele>
        <time>2012-04-05T08:54:48Z</time>
      </trkpt>
      <trkpt lat="47.29028" lon="4.99048">
        <ele>352.995</ele>
        <time>2012-04-05T08:54:59Z</time>
      </trkpt>
      <trkpt lat="47.2903" lon="4.99043">
        <ele>353.126</ele>
        <time>2012-04-05T08:55:10Z</time>
      </trkpt>
      <trkpt lat="47.2903" lon="4.9904">
        <ele>352.646</ele>
        <time>2012-04-05T08:55:21Z</time>
      </trkpt>
      <trkpt lat="47.29032" lon="4.99028">
        <ele>354.259</ele>
        <time>2012-04-05T08:55:32Z</time>
      </trkpt>
      <trkpt lat="47.29038" lon="4.99018">
        <ele>355.904</ele>
        <time>2012-04-05T08:55:43Z</time>
      </trkpt>
      <trkpt lat="47.29047" lon="4.99013">
        <ele>355.716</ele>
        <time>2012-04-05T08:55:54Z</time>
      </trkpt>
      <trkpt lat="47.29057" lon="4.99013">
        <ele>355.1</ele>
        <time>2012-04-05T08:56:05Z</time>
      </trkpt>
      <trkpt lat="47.29068" lon="4.9901">
        <ele>357.419</ele>
        <time>2012-04-05T08:56:16Z</time>
      </trkpt>
      <trkpt lat="47.2908" lon="4.99005">
        <ele>358.397</ele>
        <time>2012-04-05T08:56:27Z</time>
      </trkpt>
      <trkpt lat="47.29093" lon="4.98998">
        <ele>359.887</ele>
        <time>2012-04-05T08:56:38Z</time>
      </trkpt>
      <trkpt lat="47.29103" lon="4.98997">
        <ele>361.888</ele>
        <time>2012-04-05T08:56:49Z</time>
      </trkpt>
      <trkpt lat="47.29118" lon="4.98992">
        <ele>362.37</ele>
        <time>2012-04-05T08:57:00Z</time>
      </trkpt>
      <trkpt lat="47.29132" lon="4.98983">
        <ele>363.205</ele>
        <time>2012-04-05T08:57:11Z</time>
      </trkpt>
      <trkpt lat="47.29145" lon="4.98975">
        <ele>364.96</ele>
        <time>2012-04-05T08:57:22Z</time>
      </trkpt>
      <trkpt lat="47.29155" lon="4.98973">
        <ele>364.933</ele>
        <time>2012-04-05T08:57:34Z</time>
      </trkpt>
      <trkpt lat="47.2916" lon="4.98962">
        <ele>366.367</ele>
        <time>2012-04-05T08:57:45Z</time>
      </trkpt>
      <trkpt lat="47.29168" lon="4.98947">
        <ele>366.018</ele>
        <time>2012-04-05T08:57:56Z</time>
      </trkpt>
      <trkpt lat="47.29175" lon="4.9893">
        <ele>367.738</ele>
        <time>2012-04-05T08:58:07Z</time>
      </trkpt>
      <trkpt lat="47.29177" lon="4.98915">
        <ele>368.718</ele>
        <time>2012-04-05T08:58:18Z</time>
      </trkpt>
      <trkpt lat="47.2918" lon="4.98892">
        <ele>369.023</ele>
        <time>2012-04-05T08:58:29Z</time>
      </trkpt>
      <trkpt lat="47.29185" lon="4.98873">
        <ele>369.17</ele>
        <time>2012-04-05T08:58:40Z</time>
      </trkpt>
      <trkpt lat="47.2919" lon="4.98855">
        <ele>369.518</ele>
        <time>2012-04-05T08:58:51Z</time>
      </trkpt>
      <trkpt lat="47.29195" lon="4.98838">
        <ele>370.784</ele>
        <time>2012-04-05T08:59:02Z</time>
      </trkpt>
      <trkpt lat="47.29197" lon="4.98823">
        <ele>371.047</ele>
        <time>2012-04-05T08:59:14Z</time>
      </trkpt>
      <trkpt lat="47.292" lon="4.988">
        <ele>370.443</ele>
        <time>2012-04-05T08:59:25Z</time>
      </trkpt>
      <trkpt lat="47.292" lon="4.9878">
        <ele>370.979</ele>
        <time>2012-04-05T08:59:36Z</time>
      </trkpt>
      <trkpt lat="47.29202" lon="4.9876">
        <ele>372.968</ele>
        <time>2012-04-05T08:59:47Z</time>
      </trkpt>
      <trkpt lat="47.29207" lon="4.9874">
        <ele>374.696</ele>
        <time>2012-04-05T08:59:58Z</time>
      </trkpt>
      <trkpt lat="47.29213" lon="4.98723">
        <ele>374.535</ele>
        <time>2012-04-05T09:00:09Z</time>
      </trkpt>
      <trkpt lat="47.29222" lon="4.98707">
        <ele>376.938</ele>
        <time>2012-04-05T09:00:20Z</time>
      </trkpt>
      <trkpt lat="47.2923" lon="4.98692">
        <ele>377.293</ele>
        <time>2012-04-05T09:00:31Z</time>
      </trkpt>
      <trkpt lat="47.29237" lon="4.98682">
        <ele>377.415</ele>
        <time>2012-04-05T09:00:42Z</time>
      </trkpt>
      <trkpt lat="47.29243" lon="4.98672">
        <ele>378.112</ele>
        <time>2012-04-05T09:00:53Z</time>
      </trkpt>
      <trkpt lat="47.29247" lon="4.9867">
        <ele>378.112</ele>
        <time>2012-04-05T09:01:04Z</time>
      </trkpt>
      <trkpt lat="47.29248" lon="4.98668">
        <ele>378.458</ele>
        <time>2012-04-05T09:01:15Z</time>
      </trkpt>
      <trkpt lat="47.29262" lon="4.9866">
        <ele>379.013</ele>
        <time>2012-04-05T09:01:27Z</time>
      </trkpt>
      <trkpt lat="47.29273" lon="4.98648">
        <ele>379.568</ele>
        <time>2012-04-05T09:01:38Z</time>
      </trkpt>
      <trkpt lat="47.29285" lon="4.9864">
        <ele>379.903</ele>
        <time>2012-04-05T09:01:49Z</time>
      </trkpt>
      <trkpt lat="47.29297" lon="4.98635">
        <ele>381.551</ele>
        <time>2012-04-05T09:02:00Z</time>
      </trkpt>
      <trkpt lat="47.29307" lon="4.9863">
        <ele>383.19</ele>
        <time>2012-04-05T09:02:11Z</time>
      </trkpt>
      <trkpt lat="47.2932" lon="4.98623">
        <ele>383.734</ele>
        <time>2012-04-05T09:02:22Z</time>
      </trkpt>
      <trkpt lat="47.29333" lon="4.98617">
        <ele>384.246</ele>
        <time>2012-04-05T09:02:33Z</time>
      </trkpt>
      <trkpt lat="47.29345" lon="4.9861">
        <ele>383.834</ele>
        <time>2012-04-05T09:02:44Z</time>
      </trkpt>
      <trkpt lat="47.29357" lon="4.98602">
        <ele>385.46</ele>
        <time>2012-04-05T09:02:55Z</time>
      </trkpt>
      <trkpt lat="47.29368" lon="4.98595">
        <ele>386.034</ele>
        <time>2012-04-05T09:03:06Z</time>
      </trkpt>
      <trkpt lat="47.29382" lon="4.9859">
        <ele>387.537</ele>
        <time>2012-04-05T09:03:17Z</time>
      </trkpt>
      <trkpt lat="47.29395" lon="4.98583">
        <ele>389.404</ele>
        <time>2012-04-05T09:03:28Z</time>
      </trkpt>
      <trkpt lat="47.29408" lon="4.98577">
        <ele>390.274</ele>
        <time>2012-04-05T09:03:39Z</time>
      </trkpt>
      <trkpt lat="47.29422" lon="4.98568">
        <ele>389.994</ele>
        <time>2012-04-05T09:03:50Z</time>
      </trkpt>
      <trkpt lat="47.29433" lon="4.98562">
        <ele>390.534</ele>
        <time>2012-04-05T09:04:01Z</time>
      </trkpt>
      <trkpt lat="47.29445" lon="4.98555">
        <ele>391.695</ele>
        <time>2012-04-05T09:04:12Z</time>
      </trkpt>
      <trkpt lat="47.29455" lon="4.9855">
        <ele>392.262</ele>
        <time>2012-04-05T09:04:23Z</time>
      </trkpt>
      <trkpt lat="47.29468" lon="4.98543">
        <ele>393.518</ele>
        <time>2012-04-05T09:04:34Z</time>
      </trkpt>
      <trkpt lat="47.29482" lon="4.98535">
        <ele>393.173</ele>
        <time>2012-04-05T09:04:45Z</time>
      </trkpt>
      <trkpt lat="47.29493" lon="4.98528">
        <ele>384.8</ele>
        <time>2012-04-05T09:04:56Z</time>
      </trkpt>
      <trkpt lat="47.29505" lon="4.98522">
        <ele>394.181</ele>
        <time>2012-04-05T09:05:07Z</time>
      </trkpt>
      <trkpt lat="47.2952" lon="4.98517">
        <ele>393.774</ele>
        <time>2012-04-05T09:05:18Z</time>
      </trkpt>
      <trkpt lat="47.29532" lon="4.9851">
        <ele>393.31</ele>
        <time>2012-04-05T09:05:29Z</time>
      </trkpt>
      <trkpt lat="47.29537" lon="4.98507">
        <ele>392.416</ele>
        <time>2012-04-05T09:05:40Z</time>
      </trkpt>
      <trkpt lat="47.29547" lon="4.98503">
        <ele>391.748</ele>
        <time>2012-04-05T09:05:51Z</time>
      </trkpt>
      <trkpt lat="47.29557" lon="4.98495">
        <ele>391.929</ele>
        <time>2012-04-05T09:06:02Z</time>
      </trkpt>
      <trkpt lat="47.2957" lon="4.98487">
        <ele>392.25</ele>
        <time>2012-04-05T09:06:13Z</time>
      </trkpt>
      <trkpt lat="47.29578" lon="4.98478">
        <ele>392.546</ele>
        <time>2012-04-05T09:06:24Z</time>
      </trkpt>
      <trkpt lat="47.29588" lon="4.98467">
        <ele>391.443</ele>
        <time>2012-04-05T09:06:35Z</time>
      </trkpt>
      <trkpt lat="47.296" lon="4.98452">
        <ele>392.507</ele>
        <time>2012-04-05T09:06:46Z</time>
      </trkpt>
      <trkpt lat="47.29607" lon="4.98445">
        <ele>392.223</ele>
        <time>2012-04-05T09:06:57Z</time>
      </trkpt>
      <trkpt lat="47.29612" lon="4.98433">
        <ele>391.167</ele>
        <time>2012-04-05T09:07:08Z</time>
      </trkpt>
      <trkpt lat="47.29615" lon="4.98425">
        <ele>391.307</ele>
        <time>2012-04-05T09:07:19Z</time>
      </trkpt>
      <trkpt lat="47.29617" lon="4.98418">
        <ele>391.03</ele>
        <time>2012-04-05T09:07:30Z</time>
      </trkpt>
      <trkpt lat="47.29622" lon="4.98397">
        <ele>391.907</ele>
        <time>2012-04-05T09:07:41Z</time>
      </trkpt>
      <trkpt lat="47.29627" lon="4.98378">
        <ele>393.705</ele>
        <time>2012-04-05T09:07:52Z</time>
      </trkpt>
      <trkpt lat="47.2963" lon="4.98357">
        <ele>393.553</ele>
        <time>2012-04-05T09:08:03Z</time>
      </trkpt>
      <trkpt lat="47.29637" lon="4.98337">
        <ele>394.169</ele>
        <time>2012-04-05T09:08:14Z</time>
      </trkpt>
      <trkpt lat="47.2964" lon="4.98318">
        <ele>394.887</ele>
        <time>2012-04-05T09:08:25Z</time>
      </trkpt>
      <trkpt lat="47.29642" lon="4.98303">
        <ele>395.012</ele>
        <time>2012-04-05T09:08:36Z</time>
      </trkpt>
      <trkpt lat="47.29643" lon="4.98303">
        <ele>395.105</ele>
        <time>2012-04-05T09:08:47Z</time>
      </trkpt>
      <trkpt lat="47.29642" lon="4.98302">
        <ele>395.027</ele>
        <time>2012-04-05T09:08:58Z</time>
      </trkpt>
      <trkpt lat="47.29642" lon="4.98302">
        <ele>395.027</ele>
        <time>2012-04-05T09:09:09Z</time>
      </trkpt>
      <trkpt lat="47.29642" lon="4.98302">
        <ele>395.027</ele>
        <time>2012-04-05T09:09:21Z</time>
      </trkpt>
      <trkpt lat="47.29642" lon="4.98302">
        <ele>394.875</ele>
        <time>2012-04-05T09:09:32Z</time>
      </trkpt>
      <trkpt lat="47.29643" lon="4.983">
        <ele>395.178</ele>
        <time>2012-04-05T09:09:43Z</time>
      </trkpt>
      <trkpt lat="47.29645" lon="4.9829">
        <ele>395.864</ele>
        <time>2012-04-05T09:09:54Z</time>
      </trkpt>
      <trkpt lat="47.29645" lon="4.98288">
        <ele>395.957</ele>
        <time>2012-04-05T09:10:05Z</time>
      </trkpt>
      <trkpt lat="47.29648" lon="4.98277">
        <ele>395.783</ele>
        <time>2012-04-05T09:10:16Z</time>
      </trkpt>
      <trkpt lat="47.2965" lon="4.98265">
        <ele>396.544</ele>
        <time>2012-04-05T09:10:27Z</time>
      </trkpt>
      <trkpt lat="47.29652" lon="4.98257">
        <ele>396.714</ele>
        <time>2012-04-05T09:10:38Z</time>
      </trkpt>
      <trkpt lat="47.29652" lon="4.98257">
        <ele>396.714</ele>
        <time>2012-04-05T09:10:49Z</time>
      </trkpt>
      <trkpt lat="47.29653" lon="4.98253">
        <ele>396.43</ele>
        <time>2012-04-05T09:11:00Z</time>
      </trkpt>
      <trkpt lat="47.29655" lon="4.9824">
        <ele>397.959</ele>
        <time>2012-04-05T09:11:11Z</time>
      </trkpt>
      <trkpt lat="47.29658" lon="4.98228">
        <ele>398.419</ele>
        <time>2012-04-05T09:11:22Z</time>
      </trkpt>
      <trkpt lat="47.2966" lon="4.98215">
        <ele>397.9</ele>
        <time>2012-04-05T09:11:33Z</time>
      </trkpt>
      <trkpt lat="47.29662" lon="4.98207">
        <ele>397.705</ele>
        <time>2012-04-05T09:11:44Z</time>
      </trkpt>
      <trkpt lat="47.29665" lon="4.9819">
        <ele>396.631</ele>
        <time>2012-04-05T09:11:55Z</time>
      </trkpt>
      <trkpt lat="47.29667" lon="4.98178">
        <ele>396.116</ele>
        <time>2012-04-05T09:12:06Z</time>
      </trkpt>
      <trkpt lat="47.2967" lon="4.9816">
        <ele>395.39</ele>
        <time>2012-04-05T09:12:17Z</time>
      </trkpt>
      <trkpt lat="47.29673" lon="4.98143">
        <ele>394.818</ele>
        <time>2012-04-05T09:12:28Z</time>
      </trkpt>
      <trkpt lat="47.29678" lon="4.98125">
        <ele>393.595</ele>
        <time>2012-04-05T09:12:39Z</time>
      </trkpt>
      <trkpt lat="47.29683" lon="4.98107">
        <ele>394.552</ele>
        <time>2012-04-05T09:12:50Z</time>
      </trkpt>
      <trkpt lat="47.29687" lon="4.98093">
        <ele>389</ele>
        <time>2012-04-05T09:13:01Z</time>
      </trkpt>
      <trkpt lat="47.29688" lon="4.98078">
        <ele>393.357</ele>
        <time>2012-04-05T09:13:12Z</time>
      </trkpt>
      <trkpt lat="47.2969" lon="4.98063">
        <ele>393.053</ele>
        <time>2012-04-05T09:13:23Z</time>
      </trkpt>
      <trkpt lat="47.29693" lon="4.98047">
        <ele>392.26</ele>
        <time>2012-04-05T09:13:34Z</time>
      </trkpt>
      <trkpt lat="47.29695" lon="4.98043">
        <ele>392.331</ele>
        <time>2012-04-05T09:13:45Z</time>
      </trkpt>
      <trkpt lat="47.29697" lon="4.98038">
        <ele>392.213</ele>
        <time>2012-04-05T09:13:56Z</time>
      </trkpt>
      <trkpt lat="47.29695" lon="4.98025">
        <ele>393.816</ele>
        <time>2012-04-05T09:14:07Z</time>
      </trkpt>
      <trkpt lat="47.297" lon="4.98015">
        <ele>394.22</ele>
        <time>2012-04-05T09:14:18Z</time>
      </trkpt>
      <trkpt lat="47.29703" lon="4.97998">
        <ele>394.06</ele>
        <time>2012-04-05T09:14:29Z</time>
      </trkpt>
      <trkpt lat="47.29707" lon="4.9798">
        <ele>395.017</ele>
        <time>2012-04-05T09:14:40Z</time>
      </trkpt>
      <trkpt lat="47.2971" lon="4.97963">
        <ele>395.753</ele>
        <time>2012-04-05T09:14:51Z</time>
      </trkpt>
      <trkpt lat="47.29712" lon="4.97947">
        <ele>388.3</ele>
        <time>2012-04-05T09:15:02Z</time>
      </trkpt>
      <trkpt lat="47.29715" lon="4.97928">
        <ele>396.811</ele>
        <time>2012-04-05T09:15:13Z</time>
      </trkpt>
      <trkpt lat="47.2972" lon="4.97908">
        <ele>397.918</ele>
        <time>2012-04-05T09:15:24Z</time>
      </trkpt>
      <trkpt lat="47.29723" lon="4.97892">
        <ele>398.906</ele>
        <time>2012-04-05T09:15:35Z</time>
      </trkpt>
      <trkpt lat="47.29728" lon="4.97873">
        <ele>399.883</ele>
        <time>2012-04-05T09:15:46Z</time>
      </trkpt>
      <trkpt lat="47.29733" lon="4.97857">
        <ele>398.915</ele>
        <time>2012-04-05T09:15:57Z</time>
      </trkpt>
      <trkpt lat="47.29737" lon="4.97837">
        <ele>399.155</ele>
        <time>2012-04-05T09:16:08Z</time>
      </trkpt>
      <trkpt lat="47.2974" lon="4.97818">
        <ele>398.649</ele>
        <time>2012-04-05T09:16:20Z</time>
      </trkpt>
      <trkpt lat="47.29745" lon="4.97797">
        <ele>399.166</ele>
        <time>2012-04-05T09:16:31Z</time>
      </trkpt>
      <trkpt lat="47.29748" lon="4.97777">
        <ele>398.558</ele>
        <time>2012-04-05T09:16:42Z</time>
      </trkpt>
      <trkpt lat="47.29753" lon="4.97757">
        <ele>399.641</ele>
        <time>2012-04-05T09:16:53Z</time>
      </trkpt>
      <trkpt lat="47.29757" lon="4.97737">
        <ele>399.325</ele>
        <time>2012-04-05T09:17:04Z</time>
      </trkpt>
      <trkpt lat="47.2976" lon="4.97718">
        <ele>399.074</ele>
        <time>2012-04-05T09:17:15Z</time>
      </trkpt>
      <trkpt lat="47.29765" lon="4.97697">
        <ele>400.101</ele>
        <time>2012-04-05T09:17:26Z</time>
      </trkpt>
      <trkpt lat="47.29768" lon="4.97678">
        <ele>399.693</ele>
        <time>2012-04-05T09:17:37Z</time>
      </trkpt>
      <trkpt lat="47.29772" lon="4.97658">
        <ele>400.465</ele>
        <time>2012-04-05T09:17:48Z</time>
      </trkpt>
      <trkpt lat="47.29775" lon="4.97642">
        <ele>387</ele>
        <time>2012-04-05T09:17:59Z</time>
      </trkpt>
      <trkpt lat="47.2978" lon="4.97618">
        <ele>401.008</ele>
        <time>2012-04-05T09:18:10Z</time>
      </trkpt>
      <trkpt lat="47.29783" lon="4.97598">
        <ele>401.489</ele>
        <time>2012-04-05T09:18:21Z</time>
      </trkpt>
      <trkpt lat="47.29788" lon="4.97578">
        <ele>402.524</ele>
        <time>2012-04-05T09:18:32Z</time>
      </trkpt>
      <trkpt lat="47.29793" lon="4.97558">
        <ele>401.894</ele>
        <time>2012-04-05T09:18:43Z</time>
      </trkpt>
      <trkpt lat="47.29797" lon="4.97538">
        <ele>402.49</ele>
        <time>2012-04-05T09:18:54Z</time>
      </trkpt>
      <trkpt lat="47.298" lon="4.97518">
        <ele>403.584</ele>
        <time>2012-04-05T09:19:05Z</time>
      </trkpt>
      <trkpt lat="47.29803" lon="4.975">
        <ele>404.802</ele>
        <time>2012-04-05T09:19:16Z</time>
      </trkpt>
      <trkpt lat="47.29807" lon="4.9748">
        <ele>406.532</ele>
        <time>2012-04-05T09:19:27Z</time>
      </trkpt>
      <trkpt lat="47.2981" lon="4.97462">
        <ele>406.543</ele>
        <time>2012-04-05T09:19:38Z</time>
      </trkpt>
      <trkpt lat="47.29813" lon="4.97445">
        <ele>404.942</ele>
        <time>2012-04-05T09:19:49Z</time>
      </trkpt>
      <trkpt lat="47.29817" lon="4.97423">
        <ele>405.025</ele>
        <time>2012-04-05T09:20:00Z</time>
      </trkpt>
      <trkpt lat="47.29822" lon="4.97407">
        <ele>404.725</ele>
        <time>2012-04-05T09:20:11Z</time>
      </trkpt>
      <trkpt lat="47.29827" lon="4.97403">
        <ele>404.094</ele>
        <time>2012-04-05T09:20:22Z</time>
      </trkpt>
      <trkpt lat="47.29827" lon="4.97403">
        <ele>403.886</ele>
        <time>2012-04-05T09:20:33Z</time>
      </trkpt>
      <trkpt lat="47.29827" lon="4.97403">
        <ele>403.697</ele>
        <time>2012-04-05T09:20:44Z</time>
      </trkpt>
      <trkpt lat="47.29825" lon="4.97403">
        <ele>403.225</ele>
        <time>2012-04-05T09:20:55Z</time>
      </trkpt>
      <trkpt lat="47.29827" lon="4.97403">
        <ele>403.005</ele>
        <time>2012-04-05T09:21:06Z</time>
      </trkpt>
      <trkpt lat="47.29825" lon="4.97402">
        <ele>402.673</ele>
        <time>2012-04-05T09:21:17Z</time>
      </trkpt>
      <trkpt lat="47.29818" lon="4.97403">
        <ele>402.253</ele>
        <time>2012-04-05T09:21:28Z</time>
      </trkpt>
      <trkpt lat="47.29812" lon="4.97395">
        <ele>402.116</ele>
        <time>2012-04-05T09:21:39Z</time>
      </trkpt>
      <trkpt lat="47.29808" lon="4.97375">
        <ele>401.406</ele>
        <time>2012-04-05T09:21:50Z</time>
      </trkpt>
      <trkpt lat="47.29803" lon="4.97358">
        <ele>400.314</ele>
        <time>2012-04-05T09:22:01Z</time>
      </trkpt>
      <trkpt lat="47.29795" lon="4.97345">
        <ele>400.013</ele>
        <time>2012-04-05T09:22:12Z</time>
      </trkpt>
      <trkpt lat="47.29787" lon="4.97335">
        <ele>399.28</ele>
        <time>2012-04-05T09:22:23Z</time>
      </trkpt>
      <trkpt lat="47.29777" lon="4.97322">
        <ele>399.88</ele>
        <time>2012-04-05T09:22:34Z</time>
      </trkpt>
      <trkpt lat="47.2977" lon="4.97312">
        <ele>399.126</ele>
        <time>2012-04-05T09:22:45Z</time>
      </trkpt>
      <trkpt lat="47.29758" lon="4.973">
        <ele>399.932</ele>
        <time>2012-04-05T09:22:56Z</time>
      </trkpt>
      <trkpt lat="47.29747" lon="4.97288">
        <ele>399.512</ele>
        <time>2012-04-05T09:23:07Z</time>
      </trkpt>
      <trkpt lat="47.29735" lon="4.97277">
        <ele>400.065</ele>
        <time>2012-04-05T09:23:18Z</time>
      </trkpt>
      <trkpt lat="47.29728" lon="4.97267">
        <ele>398.878</ele>
        <time>2012-04-05T09:23:29Z</time>
      </trkpt>
      <trkpt lat="47.29717" lon="4.97257">
        <ele>391</ele>
        <time>2012-04-05T09:23:40Z</time>
      </trkpt>
      <trkpt lat="47.29707" lon="4.9725">
        <ele>399.346</ele>
        <time>2012-04-05T09:23:51Z</time>
      </trkpt>
      <trkpt lat="47.29693" lon="4.97248">
        <ele>398.668</ele>
        <time>2012-04-05T09:24:02Z</time>
      </trkpt>
      <trkpt lat="47.2968" lon="4.9725">
        <ele>400.397</ele>
        <time>2012-04-05T09:24:13Z</time>
      </trkpt>
      <trkpt lat="47.2967" lon="4.97252">
        <ele>401.933</ele>
        <time>2012-04-05T09:24:24Z</time>
      </trkpt>
      <trkpt lat="47.29655" lon="4.97247">
        <ele>402.846</ele>
        <time>2012-04-05T09:24:35Z</time>
      </trkpt>
      <trkpt lat="47.29642" lon="4.97252">
        <ele>403.544</ele>
        <time>2012-04-05T09:24:46Z</time>
      </trkpt>
      <trkpt lat="47.29628" lon="4.97255">
        <ele>403.487</ele>
        <time>2012-04-05T09:24:57Z</time>
      </trkpt>
      <trkpt lat="47.29617" lon="4.97262">
        <ele>403.676</ele>
        <time>2012-04-05T09:25:09Z</time>
      </trkpt>
      <trkpt lat="47.29605" lon="4.97265">
        <ele>405.535</ele>
        <time>2012-04-05T09:25:20Z</time>
      </trkpt>
      <trkpt lat="47.296" lon="4.97258">
        <ele>405.331</ele>
        <time>2012-04-05T09:25:31Z</time>
      </trkpt>
      <trkpt lat="47.296" lon="4.9726">
        <ele>405.217</ele>
        <time>2012-04-05T09:25:42Z</time>
      </trkpt>
      <trkpt lat="47.29597" lon="4.97272">
        <ele>404.752</ele>
        <time>2012-04-05T09:25:53Z</time>
      </trkpt>
      <trkpt lat="47.2959" lon="4.97285">
        <ele>405.113</ele>
        <time>2012-04-05T09:26:04Z</time>
      </trkpt>
      <trkpt lat="47.29585" lon="4.97293">
        <ele>404.874</ele>
        <time>2012-04-05T09:26:15Z</time>
      </trkpt>
      <trkpt lat="47.29577" lon="4.97312">
        <ele>405.331</ele>
        <time>2012-04-05T09:26:26Z</time>
      </trkpt>
      <trkpt lat="47.29572" lon="4.97322">
        <ele>391.4</ele>
        <time>2012-04-05T09:26:37Z</time>
      </trkpt>
      <trkpt lat="47.29565" lon="4.97335">
        <ele>404.056</ele>
        <time>2012-04-05T09:26:48Z</time>
      </trkpt>
      <trkpt lat="47.29558" lon="4.97345">
        <ele>404.203</ele>
        <time>2012-04-05T09:26:59Z</time>
      </trkpt>
      <trkpt lat="47.29552" lon="4.97358">
        <ele>404.265</ele>
        <time>2012-04-05T09:27:10Z</time>
      </trkpt>
      <trkpt lat="47.29545" lon="4.97372">
        <ele>402.91</ele>
        <time>2012-04-05T09:27:21Z</time>
      </trkpt>
      <trkpt lat="47.29535" lon="4.97378">
        <ele>400.488</ele>
        <time>2012-04-05T09:27:32Z</time>
      </trkpt>
      <trkpt lat="47.29523" lon="4.9739">
        <ele>399.111</ele>
        <time>2012-04-05T09:27:43Z</time>
      </trkpt>
      <trkpt lat="47.29512" lon="4.97403">
        <ele>398.381</ele>
        <time>2012-04-05T09:27:54Z</time>
      </trkpt>
      <trkpt lat="47.29503" lon="4.97413">
        <ele>397.813</ele>
        <time>2012-04-05T09:28:05Z</time>
      </trkpt>
      <trkpt lat="47.29492" lon="4.97427">
        <ele>398.126</ele>
        <time>2012-04-05T09:28:16Z</time>
      </trkpt>
      <trkpt lat="47.29483" lon="4.97443">
        <ele>397.722</ele>
        <time>2012-04-05T09:28:27Z</time>
      </trkpt>
      <trkpt lat="47.29477" lon="4.97462">
        <ele>396.351</ele>
        <time>2012-04-05T09:28:38Z</time>
      </trkpt>
      <trkpt lat="47.29472" lon="4.97482">
        <ele>395.709</ele>
        <time>2012-04-05T09:28:49Z</time>
      </trkpt>
      <trkpt lat="47.29465" lon="4.97493">
        <ele>395.848</ele>
        <time>2012-04-05T09:29:00Z</time>
      </trkpt>
      <trkpt lat="47.29453" lon="4.97495">
        <ele>397.161</ele>
        <time>2012-04-05T09:29:11Z</time>
      </trkpt>
      <trkpt lat="47.29445" lon="4.97482">
        <ele>398.879</ele>
        <time>2012-04-05T09:29:22Z</time>
      </trkpt>
      <trkpt lat="47.29437" lon="4.97472">
        <ele>398.591</ele>
        <time>2012-04-05T09:29:33Z</time>
      </trkpt>
      <trkpt lat="47.29425" lon="4.97468">
        <ele>398.087</ele>
        <time>2012-04-05T09:29:44Z</time>
      </trkpt>
      <trkpt lat="47.29417" lon="4.97465">
        <ele>397.898</ele>
        <time>2012-04-05T09:29:55Z</time>
      </trkpt>
      <trkpt lat="47.29417" lon="4.97463">
        <ele>398.308</ele>
        <time>2012-04-05T09:30:06Z</time>
      </trkpt>
      <trkpt lat="47.29415" lon="4.97463">
        <ele>398.542</ele>
        <time>2012-04-05T09:30:17Z</time>
      </trkpt>
      <trkpt lat="47.29412" lon="4.97463">
        <ele>398.889</ele>
        <time>2012-04-05T09:30:28Z</time>
      </trkpt>
      <trkpt lat="47.29398" lon="4.97458">
        <ele>400.105</ele>
        <time>2012-04-05T09:30:39Z</time>
      </trkpt>
      <trkpt lat="47.29387" lon="4.97452">
        <ele>401.157</ele>
        <time>2012-04-05T09:30:50Z</time>
      </trkpt>
      <trkpt lat="47.29375" lon="4.97442">
        <ele>401.408</ele>
        <time>2012-04-05T09:31:01Z</time>
      </trkpt>
      <trkpt lat="47.29363" lon="4.97432">
        <ele>402.797</ele>
        <time>2012-04-05T09:31:12Z</time>
      </trkpt>
      <trkpt lat="47.29358" lon="4.97428">
        <ele>402.367</ele>
        <time>2012-04-05T09:31:23Z</time>
      </trkpt>
      <trkpt lat="47.29357" lon="4.9743">
        <ele>402.592</ele>
        <time>2012-04-05T09:31:34Z</time>
      </trkpt>
      <trkpt lat="47.29352" lon="4.97427">
        <ele>392.8</ele>
        <time>2012-04-05T09:31:45Z</time>
      </trkpt>
      <trkpt lat="47.2934" lon="4.97433">
        <ele>403.162</ele>
        <time>2012-04-05T09:31:56Z</time>
      </trkpt>
      <trkpt lat="47.29328" lon="4.97445">
        <ele>402.883</ele>
        <time>2012-04-05T09:32:07Z</time>
      </trkpt>
      <trkpt lat="47.29322" lon="4.97452">
        <ele>403.252</ele>
        <time>2012-04-05T09:32:18Z</time>
      </trkpt>
      <trkpt lat="47.29312" lon="4.9746">
        <ele>403.371</ele>
        <time>2012-04-05T09:32:29Z</time>
      </trkpt>
      <trkpt lat="47.2931" lon="4.97463">
        <ele>402.92</ele>
        <time>2012-04-05T09:32:40Z</time>
      </trkpt>
      <trkpt lat="47.2931" lon="4.97463">
        <ele>402.92</ele>
        <time>2012-04-05T09:32:51Z</time>
      </trkpt>
      <trkpt lat="47.2931" lon="4.97463">
        <ele>402.795</ele>
        <time>2012-04-05T09:33:02Z</time>
      </trkpt>
      <trkpt lat="47.29308" lon="4.97462">
        <ele>401.812</ele>
        <time>2012-04-05T09:33:14Z</time>
      </trkpt>
      <trkpt lat="47.29305" lon="4.97458">
        <ele>400.284</ele>
        <time>2012-04-05T09:33:25Z</time>
      </trkpt>
      <trkpt lat="47.29297" lon="4.97457">
        <ele>398.655</ele>
        <time>2012-04-05T09:33:36Z</time>
      </trkpt>
      <trkpt lat="47.29292" lon="4.97458">
        <ele>398.468</ele>
        <time>2012-04-05T09:33:47Z</time>
      </trkpt>
      <trkpt lat="47.2928" lon="4.9747">
        <ele>398.497</ele>
        <time>2012-04-05T09:33:58Z</time>
      </trkpt>
      <trkpt lat="47.29268" lon="4.97485">
        <ele>399.673</ele>
        <time>2012-04-05T09:34:09Z</time>
      </trkpt>
      <trkpt lat="47.29263" lon="4.97498">
        <ele>400.408</ele>
        <time>2012-04-05T09:34:20Z</time>
      </trkpt>
      <trkpt lat="47.2926" lon="4.975">
        <ele>400.002</ele>
        <time>2012-04-05T09:34:31Z</time>
      </trkpt>
      <trkpt lat="47.29253" lon="4.97517">
        <ele>385.2</ele>
        <time>2012-04-05T09:34:42Z</time>
      </trkpt>
      <trkpt lat="47.29247" lon="4.97537">
        <ele>398.705</ele>
        <time>2012-04-05T09:34:53Z</time>
      </trkpt>
      <trkpt lat="47.29245" lon="4.97557">
        <ele>397.954</ele>
        <time>2012-04-05T09:35:04Z</time>
      </trkpt>
      <trkpt lat="47.29242" lon="4.97577">
        <ele>397.872</ele>
        <time>2012-04-05T09:35:15Z</time>
      </trkpt>
      <trkpt lat="47.29243" lon="4.97598">
        <ele>396.413</ele>
        <time>2012-04-05T09:35:26Z</time>
      </trkpt>
      <trkpt lat="47.29248" lon="4.97618">
        <ele>394.521</ele>
        <time>2012-04-05T09:35:37Z</time>
      </trkpt>
      <trkpt lat="47.29252" lon="4.97637">
        <ele>392.567</ele>
        <time>2012-04-05T09:35:48Z</time>
      </trkpt>
      <trkpt lat="47.29257" lon="4.97655">
        <ele>389.733</ele>
        <time>2012-04-05T09:35:59Z</time>
      </trkpt>
      <trkpt lat="47.29263" lon="4.97672">
        <ele>388.81</ele>
        <time>2012-04-05T09:36:10Z</time>
      </trkpt>
      <trkpt lat="47.2927" lon="4.97687">
        <ele>388.673</ele>
        <time>2012-04-05T09:36:21Z</time>
      </trkpt>
      <trkpt lat="47.29275" lon="4.97703">
        <ele>386.774</ele>
        <time>2012-04-05T09:36:32Z</time>
      </trkpt>
      <trkpt lat="47.29285" lon="4.97717">
        <ele>386.778</ele>
        <time>2012-04-05T09:36:43Z</time>
      </trkpt>
      <trkpt lat="47.29293" lon="4.97732">
        <ele>385.993</ele>
        <time>2012-04-05T09:36:54Z</time>
      </trkpt>
      <trkpt lat="47.29307" lon="4.97742">
        <ele>385.293</ele>
        <time>2012-04-05T09:37:05Z</time>
      </trkpt>
      <trkpt lat="47.2931" lon="4.97747">
        <ele>385.284</ele>
        <time>2012-04-05T09:37:16Z</time>
      </trkpt>
      <trkpt lat="47.29313" lon="4.97763">
        <ele>384.042</ele>
        <time>2012-04-05T09:37:27Z</time>
      </trkpt>
      <trkpt lat="47.29318" lon="4.97773">
        <ele>384.951</ele>
        <time>2012-04-05T09:37:38Z</time>
      </trkpt>
      <trkpt lat="47.29322" lon="4.97778">
        <ele>386.011</ele>
        <time>2012-04-05T09:37:49Z</time>
      </trkpt>
      <trkpt lat="47.29322" lon="4.97792">
        <ele>385.54</ele>
        <time>2012-04-05T09:38:00Z</time>
      </trkpt>
      <trkpt lat="47.29327" lon="4.97802">
        <ele>386.269</ele>
        <time>2012-04-05T09:38:11Z</time>
      </trkpt>
      <trkpt lat="47.29327" lon="4.9781">
        <ele>387.794</ele>
        <time>2012-04-05T09:38:22Z</time>
      </trkpt>
      <trkpt lat="47.2932" lon="4.97822">
        <ele>389.852</ele>
        <time>2012-04-05T09:38:33Z</time>
      </trkpt>
      <trkpt lat="47.29315" lon="4.97833">
        <ele>390.673</ele>
        <time>2012-04-05T09:38:44Z</time>
      </trkpt>
      <trkpt lat="47.29313" lon="4.97847">
        <ele>392.57</ele>
        <time>2012-04-05T09:38:55Z</time>
      </trkpt>
      <trkpt lat="47.29305" lon="4.97857">
        <ele>393.695</ele>
        <time>2012-04-05T09:39:06Z</time>
      </trkpt>
      <trkpt lat="47.29293" lon="4.97858">
        <ele>394.514</ele>
        <time>2012-04-05T09:39:17Z</time>
      </trkpt>
      <trkpt lat="47.2928" lon="4.97867">
        <ele>395.285</ele>
        <time>2012-04-05T09:39:28Z</time>
      </trkpt>
      <trkpt lat="47.2927" lon="4.97872">
        <ele>384.2</ele>
        <time>2012-04-05T09:39:39Z</time>
      </trkpt>
      <trkpt lat="47.29258" lon="4.9788">
        <ele>397.128</ele>
        <time>2012-04-05T09:39:50Z</time>
      </trkpt>
      <trkpt lat="47.2925" lon="4.97892">
        <ele>398.096</ele>
        <time>2012-04-05T09:40:01Z</time>
      </trkpt>
      <trkpt lat="47.29243" lon="4.97905">
        <ele>396.619</ele>
        <time>2012-04-05T09:40:12Z</time>
      </trkpt>
      <trkpt lat="47.2924" lon="4.9792">
        <ele>396.015</ele>
        <time>2012-04-05T09:40:23Z</time>
      </trkpt>
      <trkpt lat="47.29243" lon="4.9794">
        <ele>395.21</ele>
        <time>2012-04-05T09:40:34Z</time>
      </trkpt>
      <trkpt lat="47.29248" lon="4.97955">
        <ele>394.825</ele>
        <time>2012-04-05T09:40:45Z</time>
      </trkpt>
      <trkpt lat="47.29253" lon="4.9797">
        <ele>394.292</ele>
        <time>2012-04-05T09:40:56Z</time>
      </trkpt>
      <trkpt lat="47.29258" lon="4.97987">
        <ele>393.55</ele>
        <time>2012-04-05T09:41:07Z</time>
      </trkpt>
      <trkpt lat="47.29263" lon="4.98002">
        <ele>394.362</ele>
        <time>2012-04-05T09:41:18Z</time>
      </trkpt>
      <trkpt lat="47.29273" lon="4.98017">
        <ele>394.617</ele>
        <time>2012-04-05T09:41:29Z</time>
      </trkpt>
      <trkpt lat="47.29283" lon="4.98035">
        <ele>394.985</ele>
        <time>2012-04-05T09:41:40Z</time>
      </trkpt>
      <trkpt lat="47.2929" lon="4.98052">
        <ele>393.333</ele>
        <time>2012-04-05T09:41:51Z</time>
      </trkpt>
      <trkpt lat="47.29297" lon="4.9807">
        <ele>391.55</ele>
        <time>2012-04-05T09:42:02Z</time>
      </trkpt>
      <trkpt lat="47.29302" lon="4.98085">
        <ele>392.305</ele>
        <time>2012-04-05T09:42:13Z</time>
      </trkpt>
      <trkpt lat="47.29302" lon="4.981">
        <ele>390.631</ele>
        <time>2012-04-05T09:42:24Z</time>
      </trkpt>
      <trkpt lat="47.29302" lon="4.9811">
        <ele>390.688</ele>
        <time>2012-04-05T09:42:35Z</time>
      </trkpt>
      <trkpt lat="47.29302" lon="4.98122">
        <ele>389.316</ele>
        <time>2012-04-05T09:42:46Z</time>
      </trkpt>
      <trkpt lat="47.29302" lon="4.98135">
        <ele>388.483</ele>
        <time>2012-04-05T09:42:57Z</time>
      </trkpt>
      <trkpt lat="47.293" lon="4.9815">
        <ele>387.446</ele>
        <time>2012-04-05T09:43:08Z</time>
      </trkpt>
      <trkpt lat="47.293" lon="4.98165">
        <ele>385.99</ele>
        <time>2012-04-05T09:43:19Z</time>
      </trkpt>
      <trkpt lat="47.29302" lon="4.98182">
        <ele>386.06</ele>
        <time>2012-04-05T09:43:30Z</time>
      </trkpt>
      <trkpt lat="47.29293" lon="4.98197">
        <ele>385.986</ele>
        <time>2012-04-05T09:43:41Z</time>
      </trkpt>
      <trkpt lat="47.29282" lon="4.98198">
        <ele>385.895</ele>
        <time>2012-04-05T09:43:52Z</time>
      </trkpt>
      <trkpt lat="47.29273" lon="4.98195">
        <ele>385.206</ele>
        <time>2012-04-05T09:44:03Z</time>
      </trkpt>
      <trkpt lat="47.2926" lon="4.98197">
        <ele>385.933</ele>
        <time>2012-04-05T09:44:14Z</time>
      </trkpt>
      <trkpt lat="47.2925" lon="4.982">
        <ele>386.176</ele>
        <time>2012-04-05T09:44:25Z</time>
      </trkpt>
      <trkpt lat="47.29237" lon="4.98197">
        <ele>385.448</ele>
        <time>2012-04-05T09:44:36Z</time>
      </trkpt>
      <trkpt lat="47.29225" lon="4.98195">
        <ele>384.999</ele>
        <time>2012-04-05T09:44:47Z</time>
      </trkpt>
      <trkpt lat="47.29215" lon="4.98197">
        <ele>386.278</ele>
        <time>2012-04-05T09:44:58Z</time>
      </trkpt>
      <trkpt lat="47.29205" lon="4.9819">
        <ele>387.441</ele>
        <time>2012-04-05T09:45:09Z</time>
      </trkpt>
      <trkpt lat="47.29192" lon="4.9819">
        <ele>387.433</ele>
        <time>2012-04-05T09:45:20Z</time>
      </trkpt>
      <trkpt lat="47.29177" lon="4.9819">
        <ele>387.248</ele>
        <time>2012-04-05T09:45:31Z</time>
      </trkpt>
      <trkpt lat="47.29167" lon="4.98195">
        <ele>387.004</ele>
        <time>2012-04-05T09:45:42Z</time>
      </trkpt>
      <trkpt lat="47.29153" lon="4.98198">
        <ele>387.423</ele>
        <time>2012-04-05T09:45:53Z</time>
      </trkpt>
      <trkpt lat="47.29142" lon="4.98205">
        <ele>387.882</ele>
        <time>2012-04-05T09:46:04Z</time>
      </trkpt>
      <trkpt lat="47.29128" lon="4.98212">
        <ele>389.593</ele>
        <time>2012-04-05T09:46:15Z</time>
      </trkpt>
      <trkpt lat="47.2912" lon="4.98217">
        <ele>390.079</ele>
        <time>2012-04-05T09:46:26Z</time>
      </trkpt>
      <trkpt lat="47.29115" lon="4.9822">
        <ele>391.75</ele>
        <time>2012-04-05T09:46:37Z</time>
      </trkpt>
      <trkpt lat="47.29105" lon="4.98225">
        <ele>393.79</ele>
        <time>2012-04-05T09:46:48Z</time>
      </trkpt>
      <trkpt lat="47.29092" lon="4.98225">
        <ele>394.358</ele>
        <time>2012-04-05T09:46:59Z</time>
      </trkpt>
      <trkpt lat="47.29083" lon="4.9822">
        <ele>396.1</ele>
        <time>2012-04-05T09:47:10Z</time>
      </trkpt>
      <trkpt lat="47.29075" lon="4.98215">
        <ele>396.672</ele>
        <time>2012-04-05T09:47:21Z</time>
      </trkpt>
      <trkpt lat="47.2907" lon="4.98207">
        <ele>396.841</ele>
        <time>2012-04-05T09:47:32Z</time>
      </trkpt>
      <trkpt lat="47.29057" lon="4.98197">
        <ele>396.707</ele>
        <time>2012-04-05T09:47:43Z</time>
      </trkpt>
      <trkpt lat="47.29043" lon="4.98187">
        <ele>398.297</ele>
        <time>2012-04-05T09:47:54Z</time>
      </trkpt>
      <trkpt lat="47.2903" lon="4.98175">
        <ele>399.898</ele>
        <time>2012-04-05T09:48:05Z</time>
      </trkpt>
      <trkpt lat="47.2902" lon="4.98175">
        <ele>399.658</ele>
        <time>2012-04-05T09:48:16Z</time>
      </trkpt>
      <trkpt lat="47.2901" lon="4.9817">
        <ele>400.198</ele>
        <time>2012-04-05T09:48:27Z</time>
      </trkpt>
      <trkpt lat="47.29" lon="4.9816">
        <ele>401.318</ele>
        <time>2012-04-05T09:48:38Z</time>
      </trkpt>
      <trkpt lat="47.28988" lon="4.98157">
        <ele>401.544</ele>
        <time>2012-04-05T09:48:49Z</time>
      </trkpt>
      <trkpt lat="47.28975" lon="4.98148">
        <ele>402.144</ele>
        <time>2012-04-05T09:49:00Z</time>
      </trkpt>
      <trkpt lat="47.28963" lon="4.98142">
        <ele>401.199</ele>
        <time>2012-04-05T09:49:11Z</time>
      </trkpt>
      <trkpt lat="47.2895" lon="4.98138">
        <ele>400.81</ele>
        <time>2012-04-05T09:49:22Z</time>
      </trkpt>
      <trkpt lat="47.28937" lon="4.98145">
        <ele>398.805</ele>
        <time>2012-04-05T09:49:33Z</time>
      </trkpt>
      <trkpt lat="47.2893" lon="4.9815">
        <ele>397.851</ele>
        <time>2012-04-05T09:49:44Z</time>
      </trkpt>
      <trkpt lat="47.28922" lon="4.98155">
        <ele>395.008</ele>
        <time>2012-04-05T09:49:55Z</time>
      </trkpt>
      <trkpt lat="47.28912" lon="4.98157">
        <ele>393.679</ele>
        <time>2012-04-05T09:50:06Z</time>
      </trkpt>
      <trkpt lat="47.28902" lon="4.98163">
        <ele>392.421</ele>
        <time>2012-04-05T09:50:17Z</time>
      </trkpt>
      <trkpt lat="47.2889" lon="4.98175">
        <ele>391.982</ele>
        <time>2012-04-05T09:50:28Z</time>
      </trkpt>
      <trkpt lat="47.28878" lon="4.9818">
        <ele>389.802</ele>
        <time>2012-04-05T09:50:39Z</time>
      </trkpt>
      <trkpt lat="47.28867" lon="4.98188">
        <ele>371.8</ele>
        <time>2012-04-05T09:50:50Z</time>
      </trkpt>
      <trkpt lat="47.28857" lon="4.98195">
        <ele>385.334</ele>
        <time>2012-04-05T09:51:01Z</time>
      </trkpt>
      <trkpt lat="47.28845" lon="4.98195">
        <ele>383.699</ele>
        <time>2012-04-05T09:51:12Z</time>
      </trkpt>
      <trkpt lat="47.28835" lon="4.98193">
        <ele>381.483</ele>
        <time>2012-04-05T09:51:23Z</time>
      </trkpt>
      <trkpt lat="47.28825" lon="4.98197">
        <ele>380.725</ele>
        <time>2012-04-05T09:51:34Z</time>
      </trkpt>
      <trkpt lat="47.28815" lon="4.98205">
        <ele>380.285</ele>
        <time>2012-04-05T09:51:45Z</time>
      </trkpt>
      <trkpt lat="47.28805" lon="4.98217">
        <ele>379.477</ele>
        <time>2012-04-05T09:51:56Z</time>
      </trkpt>
      <trkpt lat="47.28795" lon="4.98228">
        <ele>378.53</ele>
        <time>2012-04-05T09:52:07Z</time>
      </trkpt>
      <trkpt lat="47.28787" lon="4.9824">
        <ele>377.556</ele>
        <time>2012-04-05T09:52:18Z</time>
      </trkpt>
      <trkpt lat="47.28778" lon="4.98247">
        <ele>377.935</ele>
        <time>2012-04-05T09:52:29Z</time>
      </trkpt>
      <trkpt lat="47.2877" lon="4.98255">
        <ele>378.897</ele>
        <time>2012-04-05T09:52:40Z</time>
      </trkpt>
      <trkpt lat="47.28762" lon="4.98263">
        <ele>378.545</ele>
        <time>2012-04-05T09:52:51Z</time>
      </trkpt>
      <trkpt lat="47.28748" lon="4.98275">
        <ele>378.228</ele>
        <time>2012-04-05T09:53:02Z</time>
      </trkpt>
      <trkpt lat="47.2874" lon="4.98283">
        <ele>376.404</ele>
        <time>2012-04-05T09:53:13Z</time>
      </trkpt>
      <trkpt lat="47.28727" lon="4.98293">
        <ele>373.438</ele>
        <time>2012-04-05T09:53:24Z</time>
      </trkpt>
      <trkpt lat="47.28713" lon="4.98303">
        <ele>371.641</ele>
        <time>2012-04-05T09:53:35Z</time>
      </trkpt>
      <trkpt lat="47.287" lon="4.98317">
        <ele>355.1</ele>
        <time>2012-04-05T09:53:46Z</time>
      </trkpt>
      <trkpt lat="47.28685" lon="4.9832">
        <ele>368.901</ele>
        <time>2012-04-05T09:53:57Z</time>
      </trkpt>
      <trkpt lat="47.28673" lon="4.98323">
        <ele>367.002</ele>
        <time>2012-04-05T09:54:08Z</time>
      </trkpt>
      <trkpt lat="47.28662" lon="4.98325">
        <ele>364.889</ele>
        <time>2012-04-05T09:54:19Z</time>
      </trkpt>
      <trkpt lat="47.2865" lon="4.9833">
        <ele>361.78</ele>
        <time>2012-04-05T09:54:30Z</time>
      </trkpt>
      <trkpt lat="47.2864" lon="4.98333">
        <ele>360.559</ele>
        <time>2012-04-05T09:54:41Z</time>
      </trkpt>
      <trkpt lat="47.28628" lon="4.9834">
        <ele>359.921</ele>
        <time>2012-04-05T09:54:52Z</time>
      </trkpt>
      <trkpt lat="47.28618" lon="4.98348">
        <ele>361.266</ele>
        <time>2012-04-05T09:55:04Z</time>
      </trkpt>
      <trkpt lat="47.2861" lon="4.9835">
        <ele>361.808</ele>
        <time>2012-04-05T09:55:15Z</time>
      </trkpt>
      <trkpt lat="47.28603" lon="4.9835">
        <ele>361.363</ele>
        <time>2012-04-05T09:55:26Z</time>
      </trkpt>
      <trkpt lat="47.286" lon="4.9835">
        <ele>360.669</ele>
        <time>2012-04-05T09:55:37Z</time>
      </trkpt>
      <trkpt lat="47.28595" lon="4.98348">
        <ele>360.983</ele>
        <time>2012-04-05T09:55:48Z</time>
      </trkpt>
      <trkpt lat="47.28588" lon="4.9834">
        <ele>358.64</ele>
        <time>2012-04-05T09:55:59Z</time>
      </trkpt>
      <trkpt lat="47.28583" lon="4.98332">
        <ele>353.675</ele>
        <time>2012-04-05T09:56:10Z</time>
      </trkpt>
      <trkpt lat="47.28577" lon="4.98322">
        <ele>349.976</ele>
        <time>2012-04-05T09:56:21Z</time>
      </trkpt>
      <trkpt lat="47.2857" lon="4.98317">
        <ele>349.709</ele>
        <time>2012-04-05T09:56:32Z</time>
      </trkpt>
      <trkpt lat="47.28558" lon="4.98315">
        <ele>349.375</ele>
        <time>2012-04-05T09:56:43Z</time>
      </trkpt>
      <trkpt lat="47.28548" lon="4.98318">
        <ele>346.088</ele>
        <time>2012-04-05T09:56:54Z</time>
      </trkpt>
      <trkpt lat="47.28533" lon="4.9833">
        <ele>345.043</ele>
        <time>2012-04-05T09:57:05Z</time>
      </trkpt>
      <trkpt lat="47.28523" lon="4.9834">
        <ele>344.696</ele>
        <time>2012-04-05T09:57:16Z</time>
      </trkpt>
      <trkpt lat="47.28508" lon="4.98352">
        <ele>344.792</ele>
        <time>2012-04-05T09:57:27Z</time>
      </trkpt>
      <trkpt lat="47.28498" lon="4.98363">
        <ele>344.254</ele>
        <time>2012-04-05T09:57:38Z</time>
      </trkpt>
      <trkpt lat="47.28483" lon="4.98378">
        <ele>345.499</ele>
        <time>2012-04-05T09:57:49Z</time>
      </trkpt>
      <trkpt lat="47.2847" lon="4.98393">
        <ele>344.639</ele>
        <time>2012-04-05T09:58:00Z</time>
      </trkpt>
      <trkpt lat="47.2846" lon="4.98397">
        <ele>342.266</ele>
        <time>2012-04-05T09:58:11Z</time>
      </trkpt>
      <trkpt lat="47.2845" lon="4.98403">
        <ele>340.59</ele>
        <time>2012-04-05T09:58:22Z</time>
      </trkpt>
      <trkpt lat="47.28438" lon="4.98405">
        <ele>337.95</ele>
        <time>2012-04-05T09:58:33Z</time>
      </trkpt>
      <trkpt lat="47.28435" lon="4.98408">
        <ele>319.6</ele>
        <time>2012-04-05T09:58:44Z</time>
      </trkpt>
      <trkpt lat="47.2843" lon="4.98405">
        <ele>335.858</ele>
        <time>2012-04-05T09:58:55Z</time>
      </trkpt>
      <trkpt lat="47.2842" lon="4.98403">
        <ele>335.017</ele>
        <time>2012-04-05T09:59:06Z</time>
      </trkpt>
      <trkpt lat="47.28412" lon="4.98403">
        <ele>333.803</ele>
        <time>2012-04-05T09:59:17Z</time>
      </trkpt>
      <trkpt lat="47.28398" lon="4.9841">
        <ele>333.355</ele>
        <time>2012-04-05T09:59:28Z</time>
      </trkpt>
      <trkpt lat="47.2839" lon="4.98427">
        <ele>332.654</ele>
        <time>2012-04-05T09:59:39Z</time>
      </trkpt>
      <trkpt lat="47.2838" lon="4.9844">
        <ele>331.212</ele>
        <time>2012-04-05T09:59:50Z</time>
      </trkpt>
      <trkpt lat="47.28377" lon="4.98443">
        <ele>330.402</ele>
        <time>2012-04-05T10:00:01Z</time>
      </trkpt>
      <trkpt lat="47.28368" lon="4.98435">
        <ele>328.438</ele>
        <time>2012-04-05T10:00:12Z</time>
      </trkpt>
      <trkpt lat="47.28357" lon="4.98427">
        <ele>326.899</ele>
        <time>2012-04-05T10:00:23Z</time>
      </trkpt>
      <trkpt lat="47.28345" lon="4.98423">
        <ele>325.24</ele>
        <time>2012-04-05T10:00:34Z</time>
      </trkpt>
      <trkpt lat="47.28335" lon="4.98427">
        <ele>323.038</ele>
        <time>2012-04-05T10:00:45Z</time>
      </trkpt>
      <trkpt lat="47.28322" lon="4.98433">
        <ele>320.467</ele>
        <time>2012-04-05T10:00:56Z</time>
      </trkpt>
      <trkpt lat="47.2831" lon="4.98443">
        <ele>318.55</ele>
        <time>2012-04-05T10:01:07Z</time>
      </trkpt>
      <trkpt lat="47.28303" lon="4.98458">
        <ele>316.914</ele>
        <time>2012-04-05T10:01:18Z</time>
      </trkpt>
      <trkpt lat="47.28293" lon="4.98463">
        <ele>314.751</ele>
        <time>2012-04-05T10:01:29Z</time>
      </trkpt>
      <trkpt lat="47.28283" lon="4.98473">
        <ele>298.8</ele>
        <time>2012-04-05T10:01:40Z</time>
      </trkpt>
      <trkpt lat="47.28272" lon="4.9849">
        <ele>313.139</ele>
        <time>2012-04-05T10:01:51Z</time>
      </trkpt>
      <trkpt lat="47.28262" lon="4.98503">
        <ele>312.398</ele>
        <time>2012-04-05T10:02:02Z</time>
      </trkpt>
      <trkpt lat="47.28252" lon="4.98518">
        <ele>311.358</ele>
        <time>2012-04-05T10:02:13Z</time>
      </trkpt>
      <trkpt lat="47.28242" lon="4.98533">
        <ele>309.816</ele>
        <time>2012-04-05T10:02:24Z</time>
      </trkpt>
      <trkpt lat="47.28232" lon="4.98548">
        <ele>308.042</ele>
        <time>2012-04-05T10:02:35Z</time>
      </trkpt>
      <trkpt lat="47.28222" lon="4.98562">
        <ele>307.91</ele>
        <time>2012-04-05T10:02:46Z</time>
      </trkpt>
      <trkpt lat="47.28213" lon="4.98575">
        <ele>307.363</ele>
        <time>2012-04-05T10:02:57Z</time>
      </trkpt>
      <trkpt lat="47.28203" lon="4.98588">
        <ele>307.161</ele>
        <time>2012-04-05T10:03:08Z</time>
      </trkpt>
      <trkpt lat="47.28193" lon="4.98602">
        <ele>293.6</ele>
        <time>2012-04-05T10:03:19Z</time>
      </trkpt>
      <trkpt lat="47.28183" lon="4.98617">
        <ele>306.593</ele>
        <time>2012-04-05T10:03:30Z</time>
      </trkpt>
      <trkpt lat="47.28173" lon="4.9862">
        <ele>305.873</ele>
        <time>2012-04-05T10:03:41Z</time>
      </trkpt>
      <trkpt lat="47.28173" lon="4.98618">
        <ele>305.612</ele>
        <time>2012-04-05T10:03:52Z</time>
      </trkpt>
      <trkpt lat="47.28163" lon="4.98617">
        <ele>305.401</ele>
        <time>2012-04-05T10:04:03Z</time>
      </trkpt>
      <trkpt lat="47.28153" lon="4.98612">
        <ele>304.844</ele>
        <time>2012-04-05T10:04:14Z</time>
      </trkpt>
      <trkpt lat="47.28147" lon="4.9861">
        <ele>304.48</ele>
        <time>2012-04-05T10:04:25Z</time>
      </trkpt>
      <trkpt lat="47.28137" lon="4.9861">
        <ele>304.106</ele>
        <time>2012-04-05T10:04:36Z</time>
      </trkpt>
      <trkpt lat="47.28133" lon="4.98612">
        <ele>304.07</ele>
        <time>2012-04-05T10:04:47Z</time>
      </trkpt>
      <trkpt lat="47.28127" lon="4.98617">
        <ele>303.448</ele>
        <time>2012-04-05T10:04:58Z</time>
      </trkpt>
      <trkpt lat="47.28123" lon="4.9862">
        <ele>303.29</ele>
        <time>2012-04-05T10:05:09Z</time>
      </trkpt>
      <trkpt lat="47.28118" lon="4.98627">
        <ele>303.23</ele>
        <time>2012-04-05T10:05:20Z</time>
      </trkpt>
      <trkpt lat="47.28118" lon="4.98627">
        <ele>303.23</ele>
        <time>2012-04-05T10:05:31Z</time>
      </trkpt>
      <trkpt lat="47.28118" lon="4.98628">
        <ele>303.169</ele>
        <time>2012-04-05T10:05:42Z</time>
      </trkpt>
      <trkpt lat="47.28118" lon="4.98628">
        <ele>303.452</ele>
        <time>2012-04-05T10:05:53Z</time>
      </trkpt>
      <trkpt lat="47.28112" lon="4.98637">
        <ele>303.095</ele>
        <time>2012-04-05T10:06:04Z</time>
      </trkpt>
      <trkpt lat="47.28107" lon="4.98645">
        <ele>302.351</ele>
        <time>2012-04-05T10:06:15Z</time>
      </trkpt>
      <trkpt lat="47.28097" lon="4.98663">
        <ele>301.379</ele>
        <time>2012-04-05T10:06:26Z</time>
      </trkpt>
      <trkpt lat="47.28088" lon="4.98682">
        <ele>300.854</ele>
        <time>2012-04-05T10:06:37Z</time>
      </trkpt>
      <trkpt lat="47.28077" lon="4.98698">
        <ele>300.623</ele>
        <time>2012-04-05T10:06:48Z</time>
      </trkpt>
      <trkpt lat="47.2807" lon="4.98712">
        <ele>301.34</ele>
        <time>2012-04-05T10:06:59Z</time>
      </trkpt>
      <trkpt lat="47.28062" lon="4.98727">
        <ele>301.902</ele>
        <time>2012-04-05T10:07:10Z</time>
      </trkpt>
      <trkpt lat="47.28052" lon="4.98742">
        <ele>302.099</ele>
        <time>2012-04-05T10:07:21Z</time>
      </trkpt>
      <trkpt lat="47.28042" lon="4.98757">
        <ele>301.409</ele>
        <time>2012-04-05T10:07:32Z</time>
      </trkpt>
      <trkpt lat="47.28033" lon="4.9877">
        <ele>300.821</ele>
        <time>2012-04-05T10:07:43Z</time>
      </trkpt>
      <trkpt lat="47.28023" lon="4.98783">
        <ele>300.192</ele>
        <time>2012-04-05T10:07:54Z</time>
      </trkpt>
      <trkpt lat="47.28013" lon="4.98795">
        <ele>299.421</ele>
        <time>2012-04-05T10:08:05Z</time>
      </trkpt>
      <trkpt lat="47.28002" lon="4.98805">
        <ele>299.691</ele>
        <time>2012-04-05T10:08:16Z</time>
      </trkpt>
      <trkpt lat="47.2799" lon="4.98815">
        <ele>300.195</ele>
        <time>2012-04-05T10:08:27Z</time>
      </trkpt>
      <trkpt lat="47.2798" lon="4.98828">
        <ele>299.633</ele>
        <time>2012-04-05T10:08:38Z</time>
      </trkpt>
      <trkpt lat="47.2797" lon="4.98842">
        <ele>299.014</ele>
        <time>2012-04-05T10:08:49Z</time>
      </trkpt>
      <trkpt lat="47.27958" lon="4.98855">
        <ele>298.189</ele>
        <time>2012-04-05T10:09:00Z</time>
      </trkpt>
      <trkpt lat="47.27948" lon="4.9887">
        <ele>297.246</ele>
        <time>2012-04-05T10:09:11Z</time>
      </trkpt>
      <trkpt lat="47.27942" lon="4.98885">
        <ele>296.698</ele>
        <time>2012-04-05T10:09:22Z</time>
      </trkpt>
      <trkpt lat="47.27947" lon="4.98897">
        <ele>297.189</ele>
        <time>2012-04-05T10:09:33Z</time>
      </trkpt>
      <trkpt lat="47.2795" lon="4.98915">
        <ele>285.2</ele>
        <time>2012-04-05T10:09:44Z</time>
      </trkpt>
      <trkpt lat="47.27953" lon="4.98935">
        <ele>298.529</ele>
        <time>2012-04-05T10:09:55Z</time>
      </trkpt>
      <trkpt lat="47.27957" lon="4.98955">
        <ele>298.755</ele>
        <time>2012-04-05T10:10:06Z</time>
      </trkpt>
      <trkpt lat="47.2796" lon="4.98975">
        <ele>298.481</ele>
        <time>2012-04-05T10:10:17Z</time>
      </trkpt>
      <trkpt lat="47.27963" lon="4.98995">
        <ele>298.382</ele>
        <time>2012-04-05T10:10:28Z</time>
      </trkpt>
      <trkpt lat="47.27967" lon="4.99013">
        <ele>298.258</ele>
        <time>2012-04-05T10:10:39Z</time>
      </trkpt>
      <trkpt lat="47.27968" lon="4.99033">
        <ele>298.536</ele>
        <time>2012-04-05T10:10:50Z</time>
      </trkpt>
      <trkpt lat="47.27973" lon="4.99052">
        <ele>298.106</ele>
        <time>2012-04-05T10:11:01Z</time>
      </trkpt>
      <trkpt lat="47.27978" lon="4.99068">
        <ele>297.86</ele>
        <time>2012-04-05T10:11:12Z</time>
      </trkpt>
      <trkpt lat="47.27987" lon="4.99083">
        <ele>296.811</ele>
        <time>2012-04-05T10:11:23Z</time>
      </trkpt>
      <trkpt lat="47.27993" lon="4.991">
        <ele>295.962</ele>
        <time>2012-04-05T10:11:34Z</time>
      </trkpt>
      <trkpt lat="47.28" lon="4.99115">
        <ele>295.656</ele>
        <time>2012-04-05T10:11:45Z</time>
      </trkpt>
      <trkpt lat="47.28003" lon="4.9913">
        <ele>294.938</ele>
        <time>2012-04-05T10:11:56Z</time>
      </trkpt>
      <trkpt lat="47.28005" lon="4.9915">
        <ele>295.053</ele>
        <time>2012-04-05T10:12:07Z</time>
      </trkpt>
      <trkpt lat="47.2801" lon="4.9917">
        <ele>296.69</ele>
        <time>2012-04-05T10:12:18Z</time>
      </trkpt>
      <trkpt lat="47.28013" lon="4.99188">
        <ele>297.269</ele>
        <time>2012-04-05T10:12:29Z</time>
      </trkpt>
      <trkpt lat="47.28013" lon="4.99205">
        <ele>282</ele>
        <time>2012-04-05T10:12:40Z</time>
      </trkpt>
      <trkpt lat="47.28007" lon="4.9922">
        <ele>297.62</ele>
        <time>2012-04-05T10:12:51Z</time>
      </trkpt>
      <trkpt lat="47.28" lon="4.99235">
        <ele>297.399</ele>
        <time>2012-04-05T10:13:02Z</time>
      </trkpt>
      <trkpt lat="47.27995" lon="4.99248">
        <ele>296.891</ele>
        <time>2012-04-05T10:13:13Z</time>
      </trkpt>
      <trkpt lat="47.27988" lon="4.99263">
        <ele>296.837</ele>
        <time>2012-04-05T10:13:24Z</time>
      </trkpt>
      <trkpt lat="47.27983" lon="4.99277">
        <ele>281</ele>
        <time>2012-04-05T10:13:35Z</time>
      </trkpt>
      <trkpt lat="47.27978" lon="4.99293">
        <ele>296.636</ele>
        <time>2012-04-05T10:13:46Z</time>
      </trkpt>
      <trkpt lat="47.27975" lon="4.99308">
        <ele>296.083</ele>
        <time>2012-04-05T10:13:57Z</time>
      </trkpt>
      <trkpt lat="47.2798" lon="4.99313">
        <ele>296.733</ele>
        <time>2012-04-05T10:14:08Z</time>
      </trkpt>
      <trkpt lat="47.2798" lon="4.99328">
        <ele>296.308</ele>
        <time>2012-04-05T10:14:19Z</time>
      </trkpt>
      <trkpt lat="47.27975" lon="4.99348">
        <ele>296.751</ele>
        <time>2012-04-05T10:14:30Z</time>
      </trkpt>
      <trkpt lat="47.2797" lon="4.99365">
        <ele>296.725</ele>
        <time>2012-04-05T10:14:41Z</time>
      </trkpt>
      <trkpt lat="47.27967" lon="4.99382">
        <ele>297.347</ele>
        <time>2012-04-05T10:14:52Z</time>
      </trkpt>
      <trkpt lat="47.27962" lon="4.994">
        <ele>298.137</ele>
        <time>2012-04-05T10:15:03Z</time>
      </trkpt>
      <trkpt lat="47.27953" lon="4.99408">
        <ele>298.048</ele>
        <time>2012-04-05T10:15:14Z</time>
      </trkpt>
      <trkpt lat="47.27948" lon="4.99425">
        <ele>297.657</ele>
        <time>2012-04-05T10:15:25Z</time>
      </trkpt>
      <trkpt lat="47.27943" lon="4.99443">
        <ele>298.879</ele>
        <time>2012-04-05T10:15:36Z</time>
      </trkpt>
      <trkpt lat="47.27942" lon="4.99462">
        <ele>298.737</ele>
        <time>2012-04-05T10:15:47Z</time>
      </trkpt>
      <trkpt lat="47.27935" lon="4.99482">
        <ele>299.62</ele>
        <time>2012-04-05T10:15:58Z</time>
      </trkpt>
      <trkpt lat="47.27927" lon="4.99498">
        <ele>300.478</ele>
        <time>2012-04-05T10:16:09Z</time>
      </trkpt>
      <trkpt lat="47.27917" lon="4.99503">
        <ele>299.777</ele>
        <time>2012-04-05T10:16:20Z</time>
      </trkpt>
      <trkpt lat="47.27905" lon="4.99515">
        <ele>298.298</ele>
        <time>2012-04-05T10:16:31Z</time>
      </trkpt>
      <trkpt lat="47.27898" lon="4.99532">
        <ele>277.9</ele>
        <time>2012-04-05T10:16:42Z</time>
      </trkpt>
      <trkpt lat="47.27892" lon="4.99553">
        <ele>295.175</ele>
        <time>2012-04-05T10:16:53Z</time>
      </trkpt>
      <trkpt lat="47.27887" lon="4.99572">
        <ele>294.404</ele>
        <time>2012-04-05T10:17:04Z</time>
      </trkpt>
      <trkpt lat="47.2788" lon="4.99588">
        <ele>294.342</ele>
        <time>2012-04-05T10:17:15Z</time>
      </trkpt>
      <trkpt lat="47.27875" lon="4.99598">
        <ele>295.191</ele>
        <time>2012-04-05T10:17:26Z</time>
      </trkpt>
      <trkpt lat="47.27873" lon="4.99607">
        <ele>295.065</ele>
        <time>2012-04-05T10:17:37Z</time>
      </trkpt>
      <trkpt lat="47.27878" lon="4.99623">
        <ele>296.07</ele>
        <time>2012-04-05T10:17:48Z</time>
      </trkpt>
      <trkpt lat="47.27888" lon="4.99633">
        <ele>296.764</ele>
        <time>2012-04-05T10:17:59Z</time>
      </trkpt>
      <trkpt lat="47.279" lon="4.99645">
        <ele>296.518</ele>
        <time>2012-04-05T10:18:10Z</time>
      </trkpt>
      <trkpt lat="47.2791" lon="4.99655">
        <ele>296.183</ele>
        <time>2012-04-05T10:18:21Z</time>
      </trkpt>
      <trkpt lat="47.27922" lon="4.99665">
        <ele>296.918</ele>
        <time>2012-04-05T10:18:32Z</time>
      </trkpt>
      <trkpt lat="47.27922" lon="4.99675">
        <ele>296.087</ele>
        <time>2012-04-05T10:18:44Z</time>
      </trkpt>
      <trkpt lat="47.27915" lon="4.99692">
        <ele>296.757</ele>
        <time>2012-04-05T10:18:55Z</time>
      </trkpt>
      <trkpt lat="47.27912" lon="4.9971">
        <ele>298.96</ele>
        <time>2012-04-05T10:19:06Z</time>
      </trkpt>
      <trkpt lat="47.27907" lon="4.99722">
        <ele>301.018</ele>
        <time>2012-04-05T10:19:17Z</time>
      </trkpt>
      <trkpt lat="47.27903" lon="4.99733">
        <ele>302.405</ele>
        <time>2012-04-05T10:19:28Z</time>
      </trkpt>
      <trkpt lat="47.27903" lon="4.99737">
        <ele>303.86</ele>
        <time>2012-04-05T10:19:39Z</time>
      </trkpt>
      <trkpt lat="47.279" lon="4.99748">
        <ele>304.119</ele>
        <time>2012-04-05T10:19:50Z</time>
      </trkpt>
      <trkpt lat="47.27893" lon="4.99767">
        <ele>275.3</ele>
        <time>2012-04-05T10:20:01Z</time>
      </trkpt>
      <trkpt lat="47.27902" lon="4.99778">
        <ele>303.958</ele>
        <time>2012-04-05T10:20:12Z</time>
      </trkpt>
      <trkpt lat="47.27912" lon="4.9979">
        <ele>305.291</ele>
        <time>2012-04-05T10:20:23Z</time>
      </trkpt>
      <trkpt lat="47.27915" lon="4.99802">
        <ele>306.709</ele>
        <time>2012-04-05T10:20:34Z</time>
      </trkpt>
      <trkpt lat="47.27912" lon="4.9982">
        <ele>305.714</ele>
        <time>2012-04-05T10:20:45Z</time>
      </trkpt>
      <trkpt lat="47.27913" lon="4.99837">
        <ele>305.333</ele>
        <time>2012-04-05T10:20:56Z</time>
      </trkpt>
      <trkpt lat="47.27917" lon="4.99852">
        <ele>305.334</ele>
        <time>2012-04-05T10:21:07Z</time>
      </trkpt>
      <trkpt lat="47.27922" lon="4.99868">
        <ele>307.126</ele>
        <time>2012-04-05T10:21:18Z</time>
      </trkpt>
      <trkpt lat="47.27932" lon="4.99885">
        <ele>306.222</ele>
        <time>2012-04-05T10:21:29Z</time>
      </trkpt>
      <trkpt lat="47.27943" lon="4.99897">
        <ele>303.884</ele>
        <time>2012-04-05T10:21:40Z</time>
      </trkpt>
      <trkpt lat="47.27955" lon="4.99905">
        <ele>300.128</ele>
        <time>2012-04-05T10:21:51Z</time>
      </trkpt>
      <trkpt lat="47.27962" lon="4.99918">
        <ele>299.172</ele>
        <time>2012-04-05T10:22:02Z</time>
      </trkpt>
      <trkpt lat="47.2797" lon="4.99935">
        <ele>299.09</ele>
        <time>2012-04-05T10:22:13Z</time>
      </trkpt>
      <trkpt lat="47.27977" lon="4.9995">
        <ele>299.338</ele>
        <time>2012-04-05T10:22:24Z</time>
      </trkpt>
      <trkpt lat="47.27978" lon="4.99963">
        <ele>300.27</ele>
        <time>2012-04-05T10:22:35Z</time>
      </trkpt>
      <trkpt lat="47.27987" lon="4.99975">
        <ele>302.474</ele>
        <time>2012-04-05T10:22:46Z</time>
      </trkpt>
      <trkpt lat="47.27998" lon="4.99983">
        <ele>302.68</ele>
        <time>2012-04-05T10:22:57Z</time>
      </trkpt>
      <trkpt lat="47.28" lon="5.00002">
        <ele>303.005</ele>
        <time>2012-04-05T10:23:08Z</time>
      </trkpt>
      <trkpt lat="47.27997" lon="5.00025">
        <ele>301.059</ele>
        <time>2012-04-05T10:23:19Z</time>
      </trkpt>
      <trkpt lat="47.27997" lon="5.0004">
        <ele>298.127</ele>
        <time>2012-04-05T10:23:30Z</time>
      </trkpt>
      <trkpt lat="47.28002" lon="5.0006">
        <ele>295.693</ele>
        <time>2012-04-05T10:23:41Z</time>
      </trkpt>
      <trkpt lat="47.27995" lon="5.00083">
        <ele>292.16</ele>
        <time>2012-04-05T10:23:52Z</time>
      </trkpt>
      <trkpt lat="47.27993" lon="5.00103">
        <ele>290.488</ele>
        <time>2012-04-05T10:24:03Z</time>
      </trkpt>
      <trkpt lat="47.28005" lon="5.00108">
        <ele>289.21</ele>
        <time>2012-04-05T10:24:14Z</time>
      </trkpt>
      <trkpt lat="47.28015" lon="5.00112">
        <ele>287.521</ele>
        <time>2012-04-05T10:24:25Z</time>
      </trkpt>
      <trkpt lat="47.28023" lon="5.00122">
        <ele>285.542</ele>
        <time>2012-04-05T10:24:36Z</time>
      </trkpt>
      <trkpt lat="47.28023" lon="5.0013">
        <ele>271</ele>
        <time>2012-04-05T10:24:47Z</time>
      </trkpt>
      <trkpt lat="47.28015" lon="5.00152">
        <ele>285.16</ele>
        <time>2012-04-05T10:24:58Z</time>
      </trkpt>
      <trkpt lat="47.28012" lon="5.00167">
        <ele>285.597</ele>
        <time>2012-04-05T10:25:09Z</time>
      </trkpt>
      <trkpt lat="47.28" lon="5.00185">
        <ele>285.071</ele>
        <time>2012-04-05T10:25:20Z</time>
      </trkpt>
      <trkpt lat="47.2799" lon="5.00203">
        <ele>284.697</ele>
        <time>2012-04-05T10:25:31Z</time>
      </trkpt>
    </trkseg>
  </trk>
</gpx>